Observation data for McCamey on 06/15/2019      Previous  Date  Next       Current Mesonet Observations  Soil Data  Daily Summary Page  Observations in Plain Language
KMC4 150500Z 13009KT 28/16 A2989 RMK A01 T02780155  RH  047%=      5-min Rain = 0
KMC4 150501Z 12008KT 28/16 A2989 RMK A01 T02770155  RH  047%=      5-min Rain = 0
KMC4 150502Z 13009KT 28/16 A2989 RMK A01 T02760155  RH  047%=      5-min Rain = 0
KMC4 150503Z 12009KT 28/15 A2989 RMK A01 T02760154  RH  047%=      5-min Rain = 0
KMC4 150504Z 13008KT 28/15 A2989 RMK A01 T02760153  RH  047%=      5-min Rain = 0
KMC4 150505Z 14008KT 28/15 A2989 RMK A01 T02770154  RH  047%=      5-min Rain = 0
KMC4 150506Z 14008KT 28/15 A2989 RMK A01 T02760154  RH  047%=      5-min Rain = 0
KMC4 150507Z 13007KT 28/15 A2989 RMK A01 T02760154  RH  047%=      5-min Rain = 0
KMC4 150508Z 13008KT 28/15 A2988 RMK A01 T02750153  RH  047%=      5-min Rain = 0
KMC4 150509Z 13008KT 28/15 A2988 RMK A01 T02750153  RH  047%=      5-min Rain = 0
KMC4 150510Z 14013G18KT 27/15 A2988 RMK A01 T02740148  RH  046%=      5-min Rain = 0
KMC4 150511Z 14009KT 28/15 A2988 RMK A01 T02770150  RH  046%=      5-min Rain = 0
KMC4 150512Z 15010KT 28/15 A2988 RMK A01 T02770147  RH  045%=      5-min Rain = 0
KMC4 150513Z 16013G18KT 28/14 A2988 RMK A01 T02790142  RH  043%=      5-min Rain = 0
KMC4 150514Z 15009KT 28/14 A2988 RMK A01 T02820142  RH  042%=      5-min Rain = 0
KMC4 150515Z 15010KT 28/14 A2988 RMK A01 T02830143  RH  042%=      5-min Rain = 0
KMC4 150516Z 14010KT 28/14 A2987 RMK A01 T02840143  RH  042%=      5-min Rain = 0
KMC4 150517Z 15009KT 28/14 A2987 RMK A01 T02840144  RH  042%=      5-min Rain = 0
KMC4 150518Z 16008KT 28/14 A2987 RMK A01 T02830144  RH  043%=      5-min Rain = 0
KMC4 150519Z 15007KT 28/14 A2987 RMK A01 T02830144  RH  043%=      5-min Rain = 0
KMC4 150520Z 15007KT 28/14 A2988 RMK A01 T02820144  RH  043%=      5-min Rain = 0
KMC4 150521Z 14010G15KT 28/14 A2987 RMK A01 T02810143  RH  043%=      5-min Rain = 0
KMC4 150522Z 15012KT 28/14 A2987 RMK A01 T02820141  RH  042%=      5-min Rain = 0
KMC4 150523Z 15010KT 28/14 A2988 RMK A01 T02840142  RH  042%=      5-min Rain = 0
KMC4 150524Z 15008KT 28/14 A2988 RMK A01 T02840142  RH  042%=      5-min Rain = 0
KMC4 150525Z 16005KT 28/14 A2988 RMK A01 T02840143  RH  042%=      5-min Rain = 0
KMC4 150526Z 15006KT 28/14 A2988 RMK A01 T02820143  RH  042%=      5-min Rain = 0
KMC4 150527Z 15007KT 28/14 A2988 RMK A01 T02810143  RH  043%=      5-min Rain = 0
KMC4 150528Z 15006KT 28/14 A2988 RMK A01 T02800142  RH  043%=      5-min Rain = 0
KMC4 150529Z 14006KT 28/14 A2988 RMK A01 T02800142  RH  043%=      5-min Rain = 0
KMC4 150530Z 14006KT 28/14 A2988 RMK A01 T02800142  RH  043%=      5-min Rain = 0
KMC4 150531Z 13006KT 28/14 A2988 RMK A01 T02790142  RH  043%=      5-min Rain = 0
KMC4 150532Z 13006KT 28/14 A2988 RMK A01 T02780142  RH  043%=      5-min Rain = 0
KMC4 150533Z 13005KT 28/14 A2988 RMK A01 T02770143  RH  044%=      5-min Rain = 0
KMC4 150534Z 13006KT 28/14 A2988 RMK A01 T02760143  RH  044%=      5-min Rain = 0
KMC4 150535Z 13005KT 28/14 A2988 RMK A01 T02760144  RH  045%=      5-min Rain = 0
KMC4 150536Z 14008KT 28/15 A2988 RMK A01 T02750145  RH  045%=      5-min Rain = 0
KMC4 150537Z 14007KT 27/15 A2988 RMK A01 T02740146  RH  045%=      5-min Rain = 0
KMC4 150538Z 14007KT 27/15 A2988 RMK A01 T02730146  RH  046%=      5-min Rain = 0
KMC4 150539Z 15007KT 27/15 A2988 RMK A01 T02720146  RH  046%=      5-min Rain = 0
KMC4 150540Z 14006KT 27/15 A2988 RMK A01 T02710146  RH  046%=      5-min Rain = 0
KMC4 150541Z 14007KT 27/15 A2988 RMK A01 T02710146  RH  046%=      5-min Rain = 0
KMC4 150542Z 13007KT 27/15 A2988 RMK A01 T02710147  RH  046%=      5-min Rain = 0
KMC4 150543Z 13007KT 27/15 A2988 RMK A01 T02710147  RH  046%=      5-min Rain = 0
KMC4 150544Z 14007KT 27/15 A2988 RMK A01 T02720147  RH  047%=      5-min Rain = 0
KMC4 150545Z 14007KT 27/15 A2988 RMK A01 T02720148  RH  047%=      5-min Rain = 0
KMC4 150546Z 14007KT 27/15 A2988 RMK A01 T02710148  RH  047%=      5-min Rain = 0
KMC4 150547Z 14006KT 27/15 A2988 RMK A01 T02720148  RH  047%=      5-min Rain = 0
KMC4 150548Z 14006KT 27/15 A2988 RMK A01 T02710148  RH  047%=      5-min Rain = 0
KMC4 150549Z 14006KT 27/15 A2988 RMK A01 T02710148  RH  047%=      5-min Rain = 0
KMC4 150550Z 13007KT 27/15 A2988 RMK A01 T02710148  RH  047%=      5-min Rain = 0
KMC4 150551Z 12006KT 27/15 A2988 RMK A01 T02720147  RH  046%=      5-min Rain = 0
KMC4 150552Z 12005KT 27/15 A2988 RMK A01 T02720147  RH  046%=      5-min Rain = 0
KMC4 150553Z 15005KT 27/15 A2988 RMK A01 T02720148  RH  047%=      5-min Rain = 0
KMC4 150554Z 14006KT 27/15 A2988 RMK A01 T02710147  RH  046%=      5-min Rain = 0
KMC4 150555Z 14005KT 27/15 A2988 RMK A01 T02710147  RH  046%=      5-min Rain = 0
KMC4 150556Z 15006KT 27/15 A2988 RMK A01 T02710147  RH  046%=      5-min Rain = 0
KMC4 150557Z 16006KT 27/15 A2988 RMK A01 T02720146  RH  046%=      5-min Rain = 0
KMC4 150558Z 16005KT 27/15 A2988 RMK A01 T02720146  RH  046%=      5-min Rain = 0
KMC4 150559Z 15005KT 27/15 A2988 RMK A01 T02720145  RH  046%=      5-min Rain = 0
KMC4 150600Z 15006KT 27/15 A2988 RMK A01 T02710145  RH  046%=      5-min Rain = 0
KMC4 150601Z 14006KT 27/14 A2988 RMK A01 T02710144  RH  046%=      5-min Rain = 0
KMC4 150602Z 14005KT 27/14 A2988 RMK A01 T02700144  RH  046%=      5-min Rain = 0
KMC4 150603Z 13005KT 27/14 A2987 RMK A01 T02690144  RH  046%=      5-min Rain = 0
KMC4 150604Z 13006KT 27/15 A2988 RMK A01 T02690145  RH  046%=      5-min Rain = 0
KMC4 150605Z 13005KT 27/14 A2988 RMK A01 T02680144  RH  047%=      5-min Rain = 0
KMC4 150606Z 13004KT 27/14 A2988 RMK A01 T02670144  RH  047%=      5-min Rain = 0
KMC4 150607Z 14004KT 27/14 A2988 RMK A01 T02670144  RH  047%=      5-min Rain = 0
KMC4 150608Z 13004KT 27/14 A2987 RMK A01 T02670144  RH  047%=      5-min Rain = 0
KMC4 150609Z 13004KT 27/14 A2987 RMK A01 T02670143  RH  046%=      5-min Rain = 0
KMC4 150610Z 14003KT 27/15 A2987 RMK A01 T02680145  RH  047%=      5-min Rain = 0
KMC4 150611Z 13003KT 27/15 A2987 RMK A01 T02680145  RH  047%=      5-min Rain = 0
KMC4 150612Z 13002KT 27/14 A2987 RMK A01 T02670144  RH  047%=      5-min Rain = 0
KMC4 150613Z 13002KT 27/14 A2987 RMK A01 T02660144  RH  047%=      5-min Rain = 0
KMC4 150614Z 11003KT 27/14 A2987 RMK A01 T02650144  RH  047%=      5-min Rain = 0
KMC4 150615Z 12004KT 27/14 A2987 RMK A01 T02650144  RH  047%=      5-min Rain = 0
KMC4 150616Z 12004KT 27/14 A2987 RMK A01 T02650144  RH  047%=      5-min Rain = 0
KMC4 150617Z 12003KT 26/14 A2987 RMK A01 T02640144  RH  048%=      5-min Rain = 0
KMC4 150618Z 11003KT 26/14 A2987 RMK A01 T02630144  RH  048%=      5-min Rain = 0
KMC4 150619Z 10003KT 26/14 A2987 RMK A01 T02630144  RH  048%=      5-min Rain = 0
KMC4 150620Z 10004KT 26/14 A2987 RMK A01 T02620144  RH  048%=      5-min Rain = 0
KMC4 150621Z 08005KT 26/14 A2987 RMK A01 T02620144  RH  048%=      5-min Rain = 0
KMC4 150622Z 07005KT 26/14 A2987 RMK A01 T02620144  RH  048%=      5-min Rain = 0
KMC4 150623Z 07005KT 26/15 A2987 RMK A01 T02620145  RH  048%=      5-min Rain = 0
KMC4 150624Z 08006KT 26/15 A2987 RMK A01 T02620145  RH  049%=      5-min Rain = 0
KMC4 150625Z 07006KT 26/15 A2987 RMK A01 T02610146  RH  049%=      5-min Rain = 0
KMC4 150626Z 07006KT 26/15 A2987 RMK A01 T02610146  RH  049%=      5-min Rain = 0
KMC4 150627Z 08006KT 26/15 A2987 RMK A01 T02600146  RH  049%=      5-min Rain = 0
KMC4 150628Z 08006KT 26/15 A2987 RMK A01 T02600145  RH  049%=      5-min Rain = 0
KMC4 150629Z 09006KT 26/15 A2987 RMK A01 T02600146  RH  049%=      5-min Rain = 0
KMC4 150630Z 09007KT 26/15 A2987 RMK A01 T02600145  RH  049%=      5-min Rain = 0
KMC4 150631Z 10007KT 26/15 A2987 RMK A01 T02600146  RH  049%=      5-min Rain = 0
KMC4 150632Z 10006KT 26/15 A2987 RMK A01 T02600145  RH  049%=      5-min Rain = 0
KMC4 150633Z 09007KT 26/15 A2987 RMK A01 T02600145  RH  049%=      5-min Rain = 0
KMC4 150634Z 09006KT 26/15 A2987 RMK A01 T02600145  RH  049%=      5-min Rain = 0
KMC4 150635Z 10007KT 26/14 A2987 RMK A01 T02600144  RH  049%=      5-min Rain = 0
KMC4 150636Z 10007KT 26/14 A2987 RMK A01 T02600144  RH  049%=      5-min Rain = 0
KMC4 150637Z 10008KT 26/14 A2987 RMK A01 T02600144  RH  049%=      5-min Rain = 0
KMC4 150638Z 10007KT 26/14 A2987 RMK A01 T02600144  RH  049%=      5-min Rain = 0
KMC4 150639Z 11007KT 26/14 A2987 RMK A01 T02600144  RH  049%=      5-min Rain = 0
KMC4 150640Z 11008KT 26/14 A2987 RMK A01 T02600144  RH  049%=      5-min Rain = 0
KMC4 150641Z 11008KT 26/14 A2987 RMK A01 T02610144  RH  049%=      5-min Rain = 0
KMC4 150642Z 12008KT 26/14 A2987 RMK A01 T02610144  RH  049%=      5-min Rain = 0
KMC4 150643Z 12008KT 26/14 A2987 RMK A01 T02610144  RH  048%=      5-min Rain = 0
KMC4 150644Z 13008KT 26/14 A2987 RMK A01 T02620144  RH  048%=      5-min Rain = 0
KMC4 150645Z 12008KT 26/14 A2987 RMK A01 T02610144  RH  048%=      5-min Rain = 0
KMC4 150646Z 12008KT 26/14 A2987 RMK A01 T02610144  RH  048%=      5-min Rain = 0
KMC4 150647Z 13009KT 26/14 A2987 RMK A01 T02610144  RH  048%=      5-min Rain = 0
KMC4 150648Z 13009KT 26/14 A2987 RMK A01 T02610144  RH  049%=      5-min Rain = 0
KMC4 150649Z 13009KT 26/15 A2987 RMK A01 T02600145  RH  049%=      5-min Rain = 0
KMC4 150650Z 13008KT 26/15 A2987 RMK A01 T02600145  RH  049%=      5-min Rain = 0
KMC4 150651Z 13008KT 26/15 A2987 RMK A01 T02590145  RH  049%=      5-min Rain = 0
KMC4 150652Z 12007KT 26/15 A2987 RMK A01 T02590145  RH  049%=      5-min Rain = 0
KMC4 150653Z 12007KT 26/15 A2987 RMK A01 T02590145  RH  049%=      5-min Rain = 0
KMC4 150654Z 13007KT 26/15 A2987 RMK A01 T02590145  RH  049%=      5-min Rain = 0
KMC4 150655Z 14007KT 26/15 A2987 RMK A01 T02590146  RH  049%=      5-min Rain = 0
KMC4 150656Z 14008KT 26/15 A2987 RMK A01 T02600146  RH  050%=      5-min Rain = 0
KMC4 150657Z 13008KT 26/15 A2987 RMK A01 T02590146  RH  050%=      5-min Rain = 0
KMC4 150658Z 14009KT 26/15 A2987 RMK A01 T02590146  RH  050%=      5-min Rain = 0
KMC4 150659Z 14009KT 26/15 A2987 RMK A01 T02590146  RH  050%=      5-min Rain = 0
KMC4 150700Z 14009KT 26/15 A2987 RMK A01 T02590146  RH  050%=      5-min Rain = 0
KMC4 150701Z 14008KT 26/15 A2987 RMK A01 T02590146  RH  050%=      5-min Rain = 0
KMC4 150702Z 14008KT 26/15 A2987 RMK A01 T02590146  RH  050%=      5-min Rain = 0
KMC4 150703Z 14008KT 26/15 A2987 RMK A01 T02580146  RH  050%=      5-min Rain = 0
KMC4 150704Z 14007KT 26/15 A2986 RMK A01 T02580146  RH  050%=      5-min Rain = 0
KMC4 150705Z 14007KT 26/15 A2986 RMK A01 T02570146  RH  050%=      5-min Rain = 0
KMC4 150706Z 14007KT 26/15 A2986 RMK A01 T02570146  RH  050%=      5-min Rain = 0
KMC4 150707Z 13007KT 26/15 A2986 RMK A01 T02560146  RH  051%=      5-min Rain = 0
KMC4 150708Z 14008KT 26/15 A2986 RMK A01 T02560146  RH  051%=      5-min Rain = 0
KMC4 150709Z 13008KT 26/15 A2986 RMK A01 T02560146  RH  051%=      5-min Rain = 0
KMC4 150710Z 13008KT 26/15 A2986 RMK A01 T02570147  RH  051%=      5-min Rain = 0
KMC4 150711Z 14007KT 26/15 A2986 RMK A01 T02570147  RH  051%=      5-min Rain = 0
KMC4 150712Z 14007KT 26/15 A2986 RMK A01 T02570147  RH  051%=      5-min Rain = 0
KMC4 150713Z 14008KT 26/15 A2986 RMK A01 T02570147  RH  051%=      5-min Rain = 0
KMC4 150714Z 14009KT 26/15 A2986 RMK A01 T02570148  RH  051%=      5-min Rain = 0
KMC4 150715Z 14011KT 26/15 A2986 RMK A01 T02580148  RH  051%=      5-min Rain = 0
KMC4 150716Z 14009KT 26/15 A2986 RMK A01 T02590149  RH  050%=      5-min Rain = 0
KMC4 150717Z 13010KT 26/15 A2986 RMK A01 T02600149  RH  050%=      5-min Rain = 0
KMC4 150718Z 14008KT 26/15 A2986 RMK A01 T02600149  RH  050%=      5-min Rain = 0
KMC4 150719Z 14008KT 26/15 A2986 RMK A01 T02600149  RH  050%=      5-min Rain = 0
KMC4 150720Z 13008KT 26/15 A2986 RMK A01 T02600149  RH  050%=      5-min Rain = 0
KMC4 150721Z 14008KT 26/15 A2986 RMK A01 T02590149  RH  050%=      5-min Rain = 0
KMC4 150722Z 14008KT 26/15 A2986 RMK A01 T02590149  RH  051%=      5-min Rain = 0
KMC4 150723Z 14008KT 26/15 A2986 RMK A01 T02580149  RH  051%=      5-min Rain = 0
KMC4 150724Z 14008KT 26/15 A2986 RMK A01 T02580149  RH  051%=      5-min Rain = 0
KMC4 150725Z 15008KT 26/15 A2986 RMK A01 T02580149  RH  051%=      5-min Rain = 0
KMC4 150726Z 15008KT 26/15 A2986 RMK A01 T02580149  RH  051%=      5-min Rain = 0
KMC4 150727Z 15008KT 26/15 A2986 RMK A01 T02580149  RH  051%=      5-min Rain = 0
KMC4 150728Z 15008KT 26/15 A2986 RMK A01 T02580149  RH  051%=      5-min Rain = 0
KMC4 150729Z 14008KT 26/15 A2986 RMK A01 T02570149  RH  051%=      5-min Rain = 0
KMC4 150730Z 14009KT 26/15 A2986 RMK A01 T02570149  RH  052%=      5-min Rain = 0
KMC4 150731Z 14008KT 26/15 A2986 RMK A01 T02560149  RH  051%=      5-min Rain = 0
KMC4 150732Z 14009KT 26/15 A2986 RMK A01 T02570150  RH  052%=      5-min Rain = 0
KMC4 150733Z 14008KT 26/15 A2987 RMK A01 T02560149  RH  052%=      5-min Rain = 0
KMC4 150734Z 14008KT 26/15 A2987 RMK A01 T02560149  RH  052%=      5-min Rain = 0
KMC4 150735Z 14008KT 26/15 A2987 RMK A01 T02560149  RH  052%=      5-min Rain = 0
KMC4 150736Z 13008KT 26/15 A2986 RMK A01 T02550149  RH  052%=      5-min Rain = 0
KMC4 150737Z 13008KT 26/15 A2986 RMK A01 T02550149  RH  052%=      5-min Rain = 0
KMC4 150738Z 13007KT 26/15 A2986 RMK A01 T02550149  RH  052%=      5-min Rain = 0
KMC4 150739Z 13007KT 26/15 A2986 RMK A01 T02550149  RH  052%=      5-min Rain = 0
KMC4 150740Z 13007KT 25/15 A2986 RMK A01 T02540149  RH  052%=      5-min Rain = 0
KMC4 150741Z 13006KT 26/15 A2986 RMK A01 T02550149  RH  052%=      5-min Rain = 0
KMC4 150742Z 12006KT 26/15 A2986 RMK A01 T02550149  RH  052%=      5-min Rain = 0
KMC4 150743Z 12006KT 25/15 A2986 RMK A01 T02540149  RH  052%=      5-min Rain = 0
KMC4 150744Z 12007KT 25/15 A2986 RMK A01 T02530149  RH  052%=      5-min Rain = 0
KMC4 150745Z 12007KT 25/15 A2986 RMK A01 T02530149  RH  053%=      5-min Rain = 0
KMC4 150746Z 12007KT 25/15 A2986 RMK A01 T02530149  RH  053%=      5-min Rain = 0
KMC4 150747Z 12006KT 25/15 A2986 RMK A01 T02520149  RH  053%=      5-min Rain = 0
KMC4 150748Z 12006KT 25/15 A2986 RMK A01 T02530150  RH  053%=      5-min Rain = 0
KMC4 150749Z 13007KT 25/15 A2986 RMK A01 T02520149  RH  053%=      5-min Rain = 0
KMC4 150750Z 13007KT 25/15 A2986 RMK A01 T02520149  RH  053%=      5-min Rain = 0
KMC4 150751Z 13008KT 25/15 A2986 RMK A01 T02520150  RH  053%=      5-min Rain = 0
KMC4 150752Z 14008KT 25/15 A2986 RMK A01 T02510149  RH  053%=      5-min Rain = 0
KMC4 150753Z 14008KT 25/15 A2986 RMK A01 T02510150  RH  053%=      5-min Rain = 0
KMC4 150754Z 13008KT 25/15 A2986 RMK A01 T02510149  RH  053%=      5-min Rain = 0
KMC4 150755Z 14008KT 25/15 A2986 RMK A01 T02510150  RH  053%=      5-min Rain = 0
KMC4 150756Z 14008KT 25/15 A2986 RMK A01 T02510149  RH  053%=      5-min Rain = 0
KMC4 150757Z 13007KT 25/15 A2986 RMK A01 T02510149  RH  053%=      5-min Rain = 0
KMC4 150758Z 14008KT 25/15 A2986 RMK A01 T02500149  RH  053%=      5-min Rain = 0
KMC4 150759Z 14008KT 25/15 A2986 RMK A01 T02500149  RH  053%=      5-min Rain = 0
KMC4 150800Z 14008KT 25/15 A2986 RMK A01 T02500149  RH  053%=      5-min Rain = 0
KMC4 150801Z 14007KT 25/15 A2986 RMK A01 T02500149  RH  053%=      5-min Rain = 0
KMC4 150802Z 14007KT 25/15 A2986 RMK A01 T02500149  RH  053%=      5-min Rain = 0
KMC4 150803Z 13006KT 25/15 A2986 RMK A01 T02500149  RH  053%=      5-min Rain = 0
KMC4 150804Z 13006KT 25/15 A2985 RMK A01 T02500149  RH  053%=      5-min Rain = 0
KMC4 150805Z 14007KT 25/15 A2985 RMK A01 T02510149  RH  053%=      5-min Rain = 0
KMC4 150806Z 14007KT 25/15 A2986 RMK A01 T02510149  RH  053%=      5-min Rain = 0
KMC4 150807Z 14007KT 25/15 A2986 RMK A01 T02510149  RH  053%=      5-min Rain = 0
KMC4 150808Z 14006KT 25/15 A2986 RMK A01 T02500149  RH  053%=      5-min Rain = 0
KMC4 150809Z 15005KT 25/15 A2986 RMK A01 T02500149  RH  053%=      5-min Rain = 0
KMC4 150810Z 15006KT 25/15 A2986 RMK A01 T02500149  RH  054%=      5-min Rain = 0
KMC4 150811Z 16005KT 25/15 A2986 RMK A01 T02490149  RH  054%=      5-min Rain = 0
KMC4 150812Z 16005KT 25/15 A2986 RMK A01 T02490149  RH  054%=      5-min Rain = 0
KMC4 150813Z 15005KT 25/15 A2986 RMK A01 T02490149  RH  054%=      5-min Rain = 0
KMC4 150814Z 16005KT 25/15 A2986 RMK A01 T02490149  RH  054%=      5-min Rain = 0
KMC4 150815Z 15007KT 25/15 A2986 RMK A01 T02490148  RH  053%=      5-min Rain = 0
KMC4 150816Z 15005KT 25/15 A2986 RMK A01 T02500148  RH  053%=      5-min Rain = 0
KMC4 150817Z 14006KT 25/15 A2986 RMK A01 T02500148  RH  053%=      5-min Rain = 0
KMC4 150818Z 15007KT 25/15 A2986 RMK A01 T02500148  RH  053%=      5-min Rain = 0
KMC4 150819Z 14007KT 25/15 A2986 RMK A01 T02500148  RH  053%=      5-min Rain = 0
KMC4 150820Z 14007KT 25/15 A2986 RMK A01 T02500149  RH  053%=      5-min Rain = 0
KMC4 150821Z 14005KT 25/15 A2986 RMK A01 T02490149  RH  053%=      5-min Rain = 0
KMC4 150822Z 16006KT 25/15 A2986 RMK A01 T02490148  RH  054%=      5-min Rain = 0
KMC4 150823Z 17006KT 25/15 A2986 RMK A01 T02490148  RH  053%=      5-min Rain = 0
KMC4 150824Z 16007KT 25/15 A2986 RMK A01 T02500148  RH  053%=      5-min Rain = 0
KMC4 150825Z 17006KT 25/15 A2986 RMK A01 T02500148  RH  053%=      5-min Rain = 0
KMC4 150826Z 16005KT 25/15 A2986 RMK A01 T02500148  RH  053%=      5-min Rain = 0
KMC4 150827Z 17006KT 25/15 A2986 RMK A01 T02510148  RH  053%=      5-min Rain = 0
KMC4 150828Z 16006KT 25/15 A2986 RMK A01 T02510148  RH  053%=      5-min Rain = 0
KMC4 150829Z 17007KT 25/15 A2987 RMK A01 T02510148  RH  053%=      5-min Rain = 0
KMC4 150830Z 17006KT 25/15 A2987 RMK A01 T02510148  RH  053%=      5-min Rain = 0
KMC4 150831Z 17005KT 25/15 A2987 RMK A01 T02510148  RH  053%=      5-min Rain = 0
KMC4 150832Z 17003KT 25/15 A2987 RMK A01 T02500148  RH  053%=      5-min Rain = 0
KMC4 150833Z 16004KT 25/15 A2986 RMK A01 T02490148  RH  053%=      5-min Rain = 0
KMC4 150834Z 15004KT 25/15 A2986 RMK A01 T02500148  RH  053%=      5-min Rain = 0
KMC4 150835Z 15004KT 25/15 A2986 RMK A01 T02490148  RH  053%=      5-min Rain = 0
KMC4 150836Z 16005KT 25/15 A2987 RMK A01 T02480147  RH  053%=      5-min Rain = 0
KMC4 150837Z 15004KT 25/15 A2987 RMK A01 T02480147  RH  054%=      5-min Rain = 0
KMC4 150838Z 17003KT 25/15 A2987 RMK A01 T02470147  RH  054%=      5-min Rain = 0
KMC4 150839Z 17002KT 25/15 A2987 RMK A01 T02460147  RH  054%=      5-min Rain = 0
KMC4 150840Z 18003KT 25/15 A2987 RMK A01 T02450147  RH  054%=      5-min Rain = 0
KMC4 150841Z 17003KT 25/15 A2987 RMK A01 T02450147  RH  054%=      5-min Rain = 0
KMC4 150842Z 17004KT 25/15 A2987 RMK A01 T02460147  RH  054%=      5-min Rain = 0
KMC4 150843Z 15004KT 25/15 A2987 RMK A01 T02460147  RH  054%=      5-min Rain = 0
KMC4 150844Z 14004KT 25/15 A2987 RMK A01 T02450147  RH  054%=      5-min Rain = 0
KMC4 150845Z 15005KT 25/15 A2987 RMK A01 T02450147  RH  054%=      5-min Rain = 0
KMC4 150846Z 15007KT 25/15 A2987 RMK A01 T02450146  RH  054%=      5-min Rain = 0
KMC4 150847Z 15007KT 25/15 A2987 RMK A01 T02450145  RH  054%=      5-min Rain = 0
KMC4 150848Z 15006KT 25/15 A2987 RMK A01 T02450146  RH  054%=      5-min Rain = 0
KMC4 150849Z 16007KT 25/15 A2987 RMK A01 T02450145  RH  053%=      5-min Rain = 0
KMC4 150850Z 15007KT 25/14 A2987 RMK A01 T02460144  RH  053%=      5-min Rain = 0
KMC4 150851Z 16007KT 25/14 A2987 RMK A01 T02460144  RH  053%=      5-min Rain = 0
KMC4 150852Z 15006KT 25/14 A2987 RMK A01 T02460143  RH  053%=      5-min Rain = 0
KMC4 150853Z 16005KT 25/14 A2987 RMK A01 T02470143  RH  052%=      5-min Rain = 0
KMC4 150854Z 16006KT 25/14 A2987 RMK A01 T02470143  RH  053%=      5-min Rain = 0
KMC4 150855Z 16006KT 25/14 A2987 RMK A01 T02460143  RH  053%=      5-min Rain = 0
KMC4 150856Z 17006KT 25/14 A2987 RMK A01 T02450143  RH  053%=      5-min Rain = 0
KMC4 150857Z 17004KT 25/14 A2987 RMK A01 T02450142  RH  053%=      5-min Rain = 0
KMC4 150858Z 17004KT 25/14 A2987 RMK A01 T02450142  RH  053%=      5-min Rain = 0
KMC4 150859Z 18003KT 24/14 A2987 RMK A01 T02440142  RH  053%=      5-min Rain = 0
KMC4 150900Z 18003KT 24/14 A2987 RMK A01 T02440142  RH  053%=      5-min Rain = 0
KMC4 150901Z 17003KT 24/14 A2987 RMK A01 T02440142  RH  053%=      5-min Rain = 0
KMC4 150902Z 16004KT 24/14 A2987 RMK A01 T02430141  RH  053%=      5-min Rain = 0
KMC4 150903Z 17003KT 24/14 A2987 RMK A01 T02430141  RH  053%=      5-min Rain = 0
KMC4 150904Z 16003KT 24/14 A2987 RMK A01 T02420141  RH  053%=      5-min Rain = 0
KMC4 150905Z 15002KT 24/14 A2987 RMK A01 T02420141  RH  053%=      5-min Rain = 0
KMC4 150906Z 14001KT 24/14 A2987 RMK A01 T02410141  RH  054%=      5-min Rain = 0
KMC4 150907Z 14000KT 24/14 A2987 RMK A01 T02400141  RH  054%=      5-min Rain = 0
KMC4 150908Z 35000KT 24/14 A2987 RMK A01 T02390141  RH  054%=      5-min Rain = 0
KMC4 150909Z 36000KT 24/14 A2987 RMK A01 T02390141  RH  054%=      5-min Rain = 0
KMC4 150910Z 00001KT 24/14 A2987 RMK A01 T02380140  RH  054%=      5-min Rain = 0
KMC4 150911Z 33002KT 24/14 A2987 RMK A01 T02390139  RH  053%=      5-min Rain = 0
KMC4 150912Z 33003KT 24/14 A2987 RMK A01 T02400141  RH  054%=      5-min Rain = 0
KMC4 150913Z 32003KT 24/14 A2987 RMK A01 T02390141  RH  054%=      5-min Rain = 0
KMC4 150914Z 33003KT 24/14 A2987 RMK A01 T02370141  RH  055%=      5-min Rain = 0
KMC4 150915Z 34003KT 24/14 A2987 RMK A01 T02360141  RH  055%=      5-min Rain = 0
KMC4 150916Z 36003KT 24/14 A2987 RMK A01 T02360140  RH  055%=      5-min Rain = 0
KMC4 150917Z 01003KT 24/14 A2987 RMK A01 T02370140  RH  055%=      5-min Rain = 0
KMC4 150918Z 04001KT 24/14 A2987 RMK A01 T02380140  RH  054%=      5-min Rain = 0
KMC4 150919Z 03002KT 24/14 A2987 RMK A01 T02390140  RH  054%=      5-min Rain = 0
KMC4 150920Z 03004KT 24/14 A2987 RMK A01 T02390140  RH  054%=      5-min Rain = 0
KMC4 150921Z 02003KT 24/14 A2987 RMK A01 T02390140  RH  054%=      5-min Rain = 0
KMC4 150922Z 06002KT 24/14 A2987 RMK A01 T02390139  RH  053%=      5-min Rain = 0
KMC4 150923Z 07002KT 24/14 A2987 RMK A01 T02400137  RH  052%=      5-min Rain = 0
KMC4 150924Z 23001KT 24/14 A2987 RMK A01 T02410136  RH  052%=      5-min Rain = 0
KMC4 150925Z 16002KT 24/14 A2987 RMK A01 T02420139  RH  053%=      5-min Rain = 0
KMC4 150926Z 18004KT 24/14 A2987 RMK A01 T02400136  RH  052%=      5-min Rain = 0
KMC4 150927Z 16003KT 24/13 A2987 RMK A01 T02410134  RH  051%=      5-min Rain = 0
KMC4 150928Z 16005KT 24/14 A2987 RMK A01 T02410135  RH  052%=      5-min Rain = 0
KMC4 150929Z 17003KT 24/14 A2987 RMK A01 T02410135  RH  051%=      5-min Rain = 0
KMC4 150930Z 15004KT 24/14 A2987 RMK A01 T02410135  RH  051%=      5-min Rain = 0
KMC4 150931Z 16005KT 24/13 A2987 RMK A01 T02410133  RH  051%=      5-min Rain = 0
KMC4 150932Z 15006KT 24/13 A2987 RMK A01 T02410132  RH  051%=      5-min Rain = 0
KMC4 150933Z 14005KT 24/13 A2987 RMK A01 T02400132  RH  051%=      5-min Rain = 0
KMC4 150934Z 12005KT 24/13 A2987 RMK A01 T02400132  RH  051%=      5-min Rain = 0
KMC4 150935Z 12004KT 24/13 A2987 RMK A01 T02390132  RH  051%=      5-min Rain = 0
KMC4 150936Z 10004KT 24/13 A2987 RMK A01 T02380133  RH  052%=      5-min Rain = 0
KMC4 150937Z 10004KT 24/13 A2987 RMK A01 T02380132  RH  051%=      5-min Rain = 0
KMC4 150938Z 11004KT 24/13 A2987 RMK A01 T02390132  RH  051%=      5-min Rain = 0
KMC4 150939Z 11004KT 24/13 A2987 RMK A01 T02410132  RH  051%=      5-min Rain = 0
KMC4 150940Z 11004KT 24/13 A2987 RMK A01 T02410132  RH  050%=      5-min Rain = 0
KMC4 150941Z 10004KT 24/13 A2986 RMK A01 T02420132  RH  050%=      5-min Rain = 0
KMC4 150942Z 09003KT 24/13 A2986 RMK A01 T02420132  RH  050%=      5-min Rain = 0
KMC4 150943Z 08004KT 24/13 A2986 RMK A01 T02410133  RH  051%=      5-min Rain = 0
KMC4 150944Z 08003KT 24/13 A2986 RMK A01 T02410133  RH  051%=      5-min Rain = 0
KMC4 150945Z 09003KT 24/13 A2986 RMK A01 T02400133  RH  051%=      5-min Rain = 0
KMC4 150946Z 09004KT 24/13 A2986 RMK A01 T02400133  RH  051%=      5-min Rain = 0
KMC4 150947Z 08005KT 24/13 A2986 RMK A01 T02390132  RH  051%=      5-min Rain = 0
KMC4 150948Z 07005KT 24/13 A2986 RMK A01 T02400133  RH  051%=      5-min Rain = 0
KMC4 150949Z 07005KT 24/13 A2986 RMK A01 T02390134  RH  052%=      5-min Rain = 0
KMC4 150950Z 07004KT 24/13 A2986 RMK A01 T02390134  RH  052%=      5-min Rain = 0
KMC4 150951Z 07003KT 24/13 A2986 RMK A01 T02380134  RH  052%=      5-min Rain = 0
KMC4 150952Z 09003KT 24/13 A2986 RMK A01 T02380134  RH  052%=      5-min Rain = 0
KMC4 150953Z 10004KT 24/13 A2986 RMK A01 T02370133  RH  052%=      5-min Rain = 0
KMC4 150954Z 17004KT 24/13 A2986 RMK A01 T02380131  RH  051%=      5-min Rain = 0
KMC4 150955Z 10004KT 24/13 A2986 RMK A01 T02400130  RH  050%=      5-min Rain = 0
KMC4 150956Z 11004KT 24/13 A2986 RMK A01 T02420131  RH  050%=      5-min Rain = 0
KMC4 150957Z 13005KT 24/13 A2986 RMK A01 T02410131  RH  050%=      5-min Rain = 0
KMC4 150958Z 13004KT 24/13 A2986 RMK A01 T02410129  RH  050%=      5-min Rain = 0
KMC4 150959Z 13004KT 24/13 A2986 RMK A01 T02410130  RH  050%=      5-min Rain = 0
KMC4 151000Z 13004KT 24/13 A2986 RMK A01 T02390129  RH  050%=      5-min Rain = 0
KMC4 151001Z 12003KT 24/13 A2986 RMK A01 T02390129  RH  050%=      5-min Rain = 0
KMC4 151002Z 12003KT 24/13 A2986 RMK A01 T02390129  RH  050%=      5-min Rain = 0
KMC4 151003Z 10003KT 24/13 A2986 RMK A01 T02390129  RH  050%=      5-min Rain = 0
KMC4 151004Z 10003KT 24/13 A2986 RMK A01 T02390128  RH  050%=      5-min Rain = 0
KMC4 151005Z 10002KT 24/13 A2986 RMK A01 T02390128  RH  050%=      5-min Rain = 0
KMC4 151006Z 11003KT 24/13 A2986 RMK A01 T02390127  RH  050%=      5-min Rain = 0
KMC4 151007Z 10003KT 24/13 A2986 RMK A01 T02390127  RH  049%=      5-min Rain = 0
KMC4 151008Z 08003KT 24/13 A2986 RMK A01 T02390127  RH  049%=      5-min Rain = 0
KMC4 151009Z 08003KT 24/13 A2986 RMK A01 T02400127  RH  049%=      5-min Rain = 0
KMC4 151010Z 09004KT 24/13 A2986 RMK A01 T02400127  RH  049%=      5-min Rain = 0
KMC4 151011Z 09004KT 24/13 A2986 RMK A01 T02400127  RH  049%=      5-min Rain = 0
KMC4 151012Z 08004KT 24/13 A2986 RMK A01 T02400126  RH  049%=      5-min Rain = 0
KMC4 151013Z 09004KT 24/13 A2986 RMK A01 T02400126  RH  049%=      5-min Rain = 0
KMC4 151014Z 08003KT 24/13 A2986 RMK A01 T02410127  RH  049%=      5-min Rain = 0
KMC4 151015Z 07004KT 24/13 A2986 RMK A01 T02400128  RH  050%=      5-min Rain = 0
KMC4 151016Z 08003KT 24/13 A2986 RMK A01 T02380128  RH  050%=      5-min Rain = 0
KMC4 151017Z 08003KT 24/13 A2986 RMK A01 T02370128  RH  050%=      5-min Rain = 0
KMC4 151018Z 07004KT 24/13 A2986 RMK A01 T02370127  RH  050%=      5-min Rain = 0
KMC4 151019Z 07004KT 24/13 A2986 RMK A01 T02370127  RH  050%=      5-min Rain = 0
KMC4 151020Z 07003KT 24/13 A2986 RMK A01 T02370126  RH  050%=      5-min Rain = 0
KMC4 151021Z 07003KT 24/13 A2986 RMK A01 T02380126  RH  049%=      5-min Rain = 0
KMC4 151022Z 09004KT 24/13 A2986 RMK A01 T02390127  RH  050%=      5-min Rain = 0
KMC4 151023Z 10004KT 24/13 A2986 RMK A01 T02380126  RH  049%=      5-min Rain = 0
KMC4 151024Z 08004KT 24/12 A2986 RMK A01 T02400124  RH  048%=      5-min Rain = 0
KMC4 151025Z 08004KT 24/13 A2986 RMK A01 T02410125  RH  048%=      5-min Rain = 0
KMC4 151026Z 09003KT 24/13 A2986 RMK A01 T02420126  RH  048%=      5-min Rain = 0
KMC4 151027Z 08004KT 24/13 A2986 RMK A01 T02410126  RH  049%=      5-min Rain = 0
KMC4 151028Z 09002KT 24/13 A2986 RMK A01 T02400127  RH  049%=      5-min Rain = 0
KMC4 151029Z 09002KT 24/13 A2986 RMK A01 T02390127  RH  049%=      5-min Rain = 0
KMC4 151030Z 07002KT 24/13 A2986 RMK A01 T02380127  RH  050%=      5-min Rain = 0
KMC4 151031Z 08002KT 24/13 A2986 RMK A01 T02380127  RH  050%=      5-min Rain = 0
KMC4 151032Z 08002KT 24/13 A2986 RMK A01 T02370127  RH  050%=      5-min Rain = 0
KMC4 151033Z 07002KT 24/13 A2986 RMK A01 T02360127  RH  050%=      5-min Rain = 0
KMC4 151034Z 08002KT 24/13 A2986 RMK A01 T02370127  RH  050%=      5-min Rain = 0
KMC4 151035Z 07002KT 24/13 A2986 RMK A01 T02360126  RH  050%=      5-min Rain = 0
KMC4 151036Z 08002KT 24/13 A2986 RMK A01 T02370127  RH  050%=      5-min Rain = 0
KMC4 151037Z 08002KT 24/13 A2986 RMK A01 T02360127  RH  050%=      5-min Rain = 0
KMC4 151038Z 08002KT 24/13 A2986 RMK A01 T02360126  RH  050%=      5-min Rain = 0
KMC4 151039Z 08003KT 24/13 A2985 RMK A01 T02360127  RH  050%=      5-min Rain = 0
KMC4 151040Z 08003KT 24/13 A2985 RMK A01 T02360127  RH  051%=      5-min Rain = 0
KMC4 151041Z 08003KT 24/13 A2985 RMK A01 T02350128  RH  051%=      5-min Rain = 0
KMC4 151042Z 08003KT 23/13 A2986 RMK A01 T02330128  RH  052%=      5-min Rain = 0
KMC4 151043Z 08003KT 23/13 A2985 RMK A01 T02320129  RH  052%=      5-min Rain = 0
KMC4 151044Z 08003KT 23/13 A2985 RMK A01 T02300130  RH  053%=      5-min Rain = 0
KMC4 151045Z 08003KT 23/13 A2985 RMK A01 T02280130  RH  054%=      5-min Rain = 0
KMC4 151046Z 07003KT 23/13 A2985 RMK A01 T02270130  RH  054%=      5-min Rain = 0
KMC4 151047Z 07003KT 23/13 A2985 RMK A01 T02260129  RH  054%=      5-min Rain = 0
KMC4 151048Z 07003KT 23/13 A2985 RMK A01 T02250128  RH  054%=      5-min Rain = 0
KMC4 151049Z 05003KT 23/13 A2985 RMK A01 T02250128  RH  054%=      5-min Rain = 0
KMC4 151050Z 05002KT 23/13 A2986 RMK A01 T02260127  RH  053%=      5-min Rain = 0
KMC4 151051Z 03002KT 23/13 A2986 RMK A01 T02270126  RH  053%=      5-min Rain = 0
KMC4 151052Z 03002KT 23/13 A2986 RMK A01 T02290126  RH  052%=      5-min Rain = 0
KMC4 151053Z 04002KT 23/13 A2986 RMK A01 T02290127  RH  052%=      5-min Rain = 0
KMC4 151054Z 03002KT 23/13 A2986 RMK A01 T02300128  RH  052%=      5-min Rain = 0
KMC4 151055Z 03003KT 23/13 A2986 RMK A01 T02300129  RH  053%=      5-min Rain = 0
KMC4 151056Z 04003KT 23/13 A2986 RMK A01 T02290130  RH  054%=      5-min Rain = 0
KMC4 151057Z 04003KT 23/13 A2986 RMK A01 T02270129  RH  054%=      5-min Rain = 0
KMC4 151058Z 06002KT 23/13 A2986 RMK A01 T02260129  RH  054%=      5-min Rain = 0
KMC4 151059Z 07002KT 23/13 A2986 RMK A01 T02260128  RH  054%=      5-min Rain = 0
KMC4 151100Z 07002KT 23/13 A2986 RMK A01 T02250129  RH  054%=      5-min Rain = 0
KMC4 151101Z 07001KT 23/13 A2986 RMK A01 T02250127  RH  054%=      5-min Rain = 0
KMC4 151102Z 10001KT 23/13 A2986 RMK A01 T02250128  RH  054%=      5-min Rain = 0
KMC4 151103Z 11000KT 23/13 A2986 RMK A01 T02250127  RH  054%=      5-min Rain = 0
KMC4 151104Z 12001KT 23/13 A2986 RMK A01 T02250126  RH  054%=      5-min Rain = 0
KMC4 151105Z 11002KT 23/13 A2986 RMK A01 T02250126  RH  053%=      5-min Rain = 0
KMC4 151106Z 12002KT 23/13 A2986 RMK A01 T02260126  RH  053%=      5-min Rain = 0
KMC4 151107Z 13001KT 23/13 A2986 RMK A01 T02260126  RH  053%=      5-min Rain = 0
KMC4 151108Z 13000KT 23/13 A2986 RMK A01 T02270126  RH  053%=      5-min Rain = 0
KMC4 151109Z 00000KT 23/13 A2986 RMK A01 T02270129  RH  054%=      5-min Rain = 0
KMC4 151110Z 00000KT 23/13 A2986 RMK A01 T02260130  RH  055%=      5-min Rain = 0
KMC4 151111Z 00000KT 23/13 A2986 RMK A01 T02250129  RH  055%=      5-min Rain = 0
KMC4 151112Z 00000KT 22/13 A2986 RMK A01 T02240128  RH  055%=      5-min Rain = 0
KMC4 151113Z 00000KT 22/13 A2986 RMK A01 T02240128  RH  055%=      5-min Rain = 0
KMC4 151114Z 00000KT 22/13 A2986 RMK A01 T02230128  RH  055%=      5-min Rain = 0
KMC4 151115Z 00000KT 22/13 A2986 RMK A01 T02230127  RH  055%=      5-min Rain = 0
KMC4 151116Z 00000KT 22/13 A2986 RMK A01 T02240126  RH  054%=      5-min Rain = 0
KMC4 151117Z 00000KT 22/13 A2986 RMK A01 T02240128  RH  054%=      5-min Rain = 0
KMC4 151118Z 00000KT 22/13 A2986 RMK A01 T02240128  RH  054%=      5-min Rain = 0
KMC4 151119Z 00000KT 22/13 A2986 RMK A01 T02230130  RH  055%=      5-min Rain = 0
KMC4 151120Z 05000KT 22/13 A2986 RMK A01 T02220131  RH  056%=      5-min Rain = 0
KMC4 151121Z 04001KT 22/13 A2987 RMK A01 T02210131  RH  057%=      5-min Rain = 0
KMC4 151122Z 05002KT 22/13 A2987 RMK A01 T02200132  RH  057%=      5-min Rain = 0
KMC4 151123Z 06003KT 22/13 A2987 RMK A01 T02180131  RH  058%=      5-min Rain = 0
KMC4 151124Z 07003KT 22/13 A2987 RMK A01 T02170131  RH  058%=      5-min Rain = 0
KMC4 151125Z 07003KT 22/13 A2987 RMK A01 T02160131  RH  058%=      5-min Rain = 0
KMC4 151126Z 07003KT 22/13 A2987 RMK A01 T02160132  RH  059%=      5-min Rain = 0
KMC4 151127Z 07003KT 22/13 A2987 RMK A01 T02160132  RH  059%=      5-min Rain = 0
KMC4 151128Z 07003KT 22/13 A2987 RMK A01 T02160132  RH  059%=      5-min Rain = 0
KMC4 151129Z 08003KT 22/13 A2987 RMK A01 T02160130  RH  058%=      5-min Rain = 0
KMC4 151130Z 07004KT 22/13 A2987 RMK A01 T02170129  RH  057%=      5-min Rain = 0
KMC4 151131Z 07004KT 22/13 A2987 RMK A01 T02180130  RH  057%=      5-min Rain = 0
KMC4 151132Z 07004KT 22/13 A2987 RMK A01 T02180130  RH  057%=      5-min Rain = 0
KMC4 151133Z 07004KT 22/13 A2987 RMK A01 T02180130  RH  057%=      5-min Rain = 0
KMC4 151134Z 08004KT 22/13 A2987 RMK A01 T02190130  RH  057%=      5-min Rain = 0
KMC4 151135Z 09005KT 22/13 A2987 RMK A01 T02200127  RH  056%=      5-min Rain = 0
KMC4 151136Z 09005KT 22/13 A2987 RMK A01 T02230126  RH  054%=      5-min Rain = 0
KMC4 151137Z 09005KT 23/13 A2987 RMK A01 T02250126  RH  053%=      5-min Rain = 0
KMC4 151138Z 10004KT 23/13 A2987 RMK A01 T02260126  RH  053%=      5-min Rain = 0
KMC4 151139Z 11004KT 23/13 A2988 RMK A01 T02270126  RH  053%=      5-min Rain = 0
KMC4 151140Z 11004KT 23/13 A2988 RMK A01 T02270125  RH  053%=      5-min Rain = 0
KMC4 151141Z 11004KT 23/13 A2988 RMK A01 T02280125  RH  052%=      5-min Rain = 0
KMC4 151142Z 11004KT 23/12 A2988 RMK A01 T02280124  RH  052%=      5-min Rain = 0
KMC4 151143Z 11004KT 23/12 A2988 RMK A01 T02290123  RH  051%=      5-min Rain = 0
KMC4 151144Z 11004KT 23/12 A2988 RMK A01 T02320123  RH  050%=      5-min Rain = 0
KMC4 151145Z 12004KT 23/12 A2988 RMK A01 T02330123  RH  050%=      5-min Rain = 0
KMC4 151146Z 13004KT 23/12 A2988 RMK A01 T02330123  RH  050%=      5-min Rain = 0
KMC4 151147Z 12005KT 23/12 A2988 RMK A01 T02330123  RH  050%=      5-min Rain = 0
KMC4 151148Z 13005KT 23/12 A2988 RMK A01 T02330124  RH  050%=      5-min Rain = 0
KMC4 151149Z 12004KT 23/12 A2988 RMK A01 T02330124  RH  050%=      5-min Rain = 0
KMC4 151150Z 12004KT 23/12 A2988 RMK A01 T02320124  RH  050%=      5-min Rain = 0
KMC4 151151Z 13005KT 23/12 A2988 RMK A01 T02320124  RH  051%=      5-min Rain = 0
KMC4 151152Z 13005KT 23/12 A2988 RMK A01 T02320124  RH  051%=      5-min Rain = 0
KMC4 151153Z 14005KT 23/12 A2988 RMK A01 T02320122  RH  050%=      5-min Rain = 0
KMC4 151154Z 14004KT 23/12 A2988 RMK A01 T02320122  RH  050%=      5-min Rain = 0
KMC4 151155Z 14004KT 23/12 A2988 RMK A01 T02330124  RH  050%=      5-min Rain = 0
KMC4 151156Z 14004KT 23/13 A2988 RMK A01 T02320126  RH  051%=      5-min Rain = 0
KMC4 151157Z 15004KT 23/13 A2988 RMK A01 T02310126  RH  052%=      5-min Rain = 0
KMC4 151158Z 15004KT 23/13 A2988 RMK A01 T02290125  RH  052%=      5-min Rain = 0
KMC4 151159Z 15004KT 23/13 A2988 RMK A01 T02280125  RH  052%=      5-min Rain = 0
KMC4 151200Z 15004KT 23/12 A2988 RMK A01 T02270124  RH  052%=      5-min Rain = 0
KMC4 151201Z 15004KT 23/12 A2988 RMK A01 T02270124  RH  052%=      5-min Rain = 0
KMC4 151202Z 15003KT 23/12 A2988 RMK A01 T02270123  RH  052%=      5-min Rain = 0
KMC4 151203Z 15003KT 23/12 A2988 RMK A01 T02280123  RH  051%=      5-min Rain = 0
KMC4 151204Z 15003KT 23/12 A2988 RMK A01 T02290123  RH  051%=      5-min Rain = 0
KMC4 151205Z 14003KT 23/12 A2988 RMK A01 T02300124  RH  051%=      5-min Rain = 0
KMC4 151206Z 14003KT 23/13 A2988 RMK A01 T02310125  RH  051%=      5-min Rain = 0
KMC4 151207Z 14003KT 23/12 A2988 RMK A01 T02310124  RH  051%=      5-min Rain = 0
KMC4 151208Z 14002KT 23/12 A2988 RMK A01 T02300124  RH  051%=      5-min Rain = 0
KMC4 151209Z 13002KT 23/12 A2988 RMK A01 T02310124  RH  051%=      5-min Rain = 0
KMC4 151210Z 12002KT 23/13 A2988 RMK A01 T02310126  RH  052%=      5-min Rain = 0
KMC4 151211Z 11001KT 23/13 A2988 RMK A01 T02300130  RH  053%=      5-min Rain = 0
KMC4 151212Z 09001KT 23/13 A2988 RMK A01 T02280128  RH  053%=      5-min Rain = 0
KMC4 151213Z 08001KT 23/13 A2988 RMK A01 T02270127  RH  053%=      5-min Rain = 0
KMC4 151214Z 11001KT 23/13 A2988 RMK A01 T02270126  RH  053%=      5-min Rain = 0
KMC4 151215Z 11002KT 23/13 A2988 RMK A01 T02280127  RH  053%=      5-min Rain = 0
KMC4 151216Z 11002KT 23/13 A2988 RMK A01 T02280130  RH  054%=      5-min Rain = 0
KMC4 151217Z 12002KT 23/13 A2988 RMK A01 T02280132  RH  054%=      5-min Rain = 0
KMC4 151218Z 11002KT 23/13 A2988 RMK A01 T02270132  RH  055%=      5-min Rain = 0
KMC4 151219Z 12002KT 23/13 A2988 RMK A01 T02250134  RH  056%=      5-min Rain = 0
KMC4 151220Z 12001KT 22/13 A2988 RMK A01 T02240130  RH  055%=      5-min Rain = 0
KMC4 151221Z 13001KT 23/13 A2989 RMK A01 T02250125  RH  053%=      5-min Rain = 0
KMC4 151222Z 14002KT 23/12 A2989 RMK A01 T02270124  RH  052%=      5-min Rain = 0
KMC4 151223Z 15002KT 23/13 A2989 RMK A01 T02310126  RH  051%=      5-min Rain = 0
KMC4 151224Z 14002KT 23/13 A2989 RMK A01 T02340126  RH  050%=      5-min Rain = 0
KMC4 151225Z 12002KT 24/13 A2989 RMK A01 T02350128  RH  051%=      5-min Rain = 0
KMC4 151226Z 12002KT 24/13 A2989 RMK A01 T02360129  RH  051%=      5-min Rain = 0
KMC4 151227Z 09001KT 24/13 A2989 RMK A01 T02370130  RH  051%=      5-min Rain = 0
KMC4 151228Z 10001KT 24/13 A2989 RMK A01 T02370131  RH  051%=      5-min Rain = 0
KMC4 151229Z 12001KT 24/13 A2989 RMK A01 T02380131  RH  051%=      5-min Rain = 0
KMC4 151230Z 12002KT 24/13 A2989 RMK A01 T02390128  RH  050%=      5-min Rain = 0
KMC4 151231Z 14002KT 24/13 A2989 RMK A01 T02400126  RH  049%=      5-min Rain = 0
KMC4 151232Z 12002KT 24/13 A2989 RMK A01 T02420128  RH  049%=      5-min Rain = 0
KMC4 151233Z 14003KT 24/13 A2989 RMK A01 T02420128  RH  049%=      5-min Rain = 0
KMC4 151234Z 16002KT 24/13 A2989 RMK A01 T02440128  RH  048%=      5-min Rain = 0
KMC4 151235Z 17002KT 25/13 A2989 RMK A01 T02450129  RH  048%=      5-min Rain = 0
KMC4 151236Z 17002KT 25/13 A2989 RMK A01 T02450130  RH  049%=      5-min Rain = 0
KMC4 151237Z 17002KT 25/13 A2989 RMK A01 T02460130  RH  049%=      5-min Rain = 0
KMC4 151238Z 18002KT 25/13 A2989 RMK A01 T02460130  RH  048%=      5-min Rain = 0
KMC4 151239Z 17003KT 25/13 A2989 RMK A01 T02470130  RH  048%=      5-min Rain = 0
KMC4 151240Z 19003KT 25/13 A2989 RMK A01 T02480131  RH  048%=      5-min Rain = 0
KMC4 151241Z 19002KT 25/13 A2989 RMK A01 T02480131  RH  048%=      5-min Rain = 0
KMC4 151242Z 17002KT 25/13 A2989 RMK A01 T02490132  RH  048%=      5-min Rain = 0
KMC4 151243Z 19002KT 25/13 A2989 RMK A01 T02500133  RH  048%=      5-min Rain = 0
KMC4 151244Z 17002KT 25/13 A2989 RMK A01 T02500134  RH  048%=      5-min Rain = 0
KMC4 151245Z 13003KT 25/14 A2989 RMK A01 T02510136  RH  049%=      5-min Rain = 0
KMC4 151246Z 14003KT 25/14 A2989 RMK A01 T02500137  RH  049%=      5-min Rain = 0
KMC4 151247Z 15003KT 25/14 A2989 RMK A01 T02500135  RH  049%=      5-min Rain = 0
KMC4 151248Z 16005KT 25/14 A2988 RMK A01 T02510135  RH  049%=      5-min Rain = 0
KMC4 151249Z 15004KT 25/13 A2988 RMK A01 T02520134  RH  048%=      5-min Rain = 0
KMC4 151250Z 16003KT 25/14 A2988 RMK A01 T02530139  RH  049%=      5-min Rain = 0
KMC4 151251Z 17004KT 25/14 A2988 RMK A01 T02520140  RH  050%=      5-min Rain = 0
KMC4 151252Z 16004KT 25/14 A2988 RMK A01 T02510138  RH  049%=      5-min Rain = 0
KMC4 151253Z 16004KT 25/14 A2988 RMK A01 T02510143  RH  051%=      5-min Rain = 0
KMC4 151254Z 17005KT 25/14 A2988 RMK A01 T02500139  RH  050%=      5-min Rain = 0
KMC4 151255Z 17006KT 25/14 A2988 RMK A01 T02510138  RH  049%=      5-min Rain = 0
KMC4 151256Z 17006KT 25/14 A2988 RMK A01 T02520139  RH  049%=      5-min Rain = 0
KMC4 151257Z 17005KT 25/14 A2988 RMK A01 T02530140  RH  049%=      5-min Rain = 0
KMC4 151258Z 18006KT 25/14 A2988 RMK A01 T02530142  RH  050%=      5-min Rain = 0
KMC4 151259Z 19006KT 25/14 A2988 RMK A01 T02530141  RH  050%=      5-min Rain = 0
KMC4 151300Z 19006KT 25/14 A2988 RMK A01 T02540141  RH  050%=      5-min Rain = 0
KMC4 151301Z 18006KT 26/14 A2988 RMK A01 T02550143  RH  050%=      5-min Rain = 0
KMC4 151302Z 17005KT 26/14 A2988 RMK A01 T02560142  RH  049%=      5-min Rain = 0
KMC4 151303Z 18005KT 26/14 A2988 RMK A01 T02570143  RH  049%=      5-min Rain = 0
KMC4 151304Z 19006KT 26/14 A2988 RMK A01 T02570143  RH  049%=      5-min Rain = 0
KMC4 151305Z 19005KT 26/14 A2988 RMK A01 T02580142  RH  049%=      5-min Rain = 0
KMC4 151306Z 19005KT 26/14 A2988 RMK A01 T02580144  RH  049%=      5-min Rain = 0
KMC4 151307Z 18005KT 26/14 A2988 RMK A01 T02580144  RH  049%=      5-min Rain = 0
KMC4 151308Z 18004KT 26/14 A2988 RMK A01 T02590144  RH  049%=      5-min Rain = 0
KMC4 151309Z 17003KT 26/14 A2988 RMK A01 T02590144  RH  049%=      5-min Rain = 0
KMC4 151310Z 18005KT 26/15 A2988 RMK A01 T02600145  RH  049%=      5-min Rain = 0
KMC4 151311Z 19004KT 26/14 A2988 RMK A01 T02610144  RH  049%=      5-min Rain = 0
KMC4 151312Z 18003KT 26/15 A2988 RMK A01 T02610146  RH  049%=      5-min Rain = 0
KMC4 151313Z 17003KT 26/15 A2988 RMK A01 T02610147  RH  049%=      5-min Rain = 0
KMC4 151314Z 17003KT 26/15 A2988 RMK A01 T02620148  RH  050%=      5-min Rain = 0
KMC4 151315Z 18003KT 26/15 A2988 RMK A01 T02620148  RH  049%=      5-min Rain = 0
KMC4 151316Z 18004KT 26/15 A2988 RMK A01 T02620149  RH  049%=      5-min Rain = 0
KMC4 151317Z 17003KT 26/15 A2988 RMK A01 T02620147  RH  049%=      5-min Rain = 0
KMC4 151318Z 18004KT 26/15 A2988 RMK A01 T02630150  RH  050%=      5-min Rain = 0
KMC4 151319Z 18003KT 26/15 A2988 RMK A01 T02630147  RH  049%=      5-min Rain = 0
KMC4 151320Z 17004KT 26/15 A2988 RMK A01 T02630149  RH  050%=      5-min Rain = 0
KMC4 151321Z 16004KT 26/15 A2988 RMK A01 T02640146  RH  048%=      5-min Rain = 0
KMC4 151322Z 16005KT 27/15 A2988 RMK A01 T02650147  RH  048%=      5-min Rain = 0
KMC4 151323Z 17004KT 27/15 A2988 RMK A01 T02650145  RH  048%=      5-min Rain = 0
KMC4 151324Z 17005KT 27/15 A2988 RMK A01 T02660148  RH  049%=      5-min Rain = 0
KMC4 151325Z 17004KT 27/15 A2988 RMK A01 T02660148  RH  048%=      5-min Rain = 0
KMC4 151326Z 16005KT 27/15 A2988 RMK A01 T02660150  RH  049%=      5-min Rain = 0
KMC4 151327Z 17006KT 27/15 A2988 RMK A01 T02660147  RH  048%=      5-min Rain = 0
KMC4 151328Z 17006KT 27/15 A2988 RMK A01 T02660148  RH  048%=      5-min Rain = 0
KMC4 151329Z 17005KT 27/15 A2988 RMK A01 T02660148  RH  048%=      5-min Rain = 0
KMC4 151330Z 17005KT 27/15 A2988 RMK A01 T02670150  RH  049%=      5-min Rain = 0
KMC4 151331Z 18005KT 27/15 A2988 RMK A01 T02660145  RH  047%=      5-min Rain = 0
KMC4 151332Z 17005KT 27/14 A2988 RMK A01 T02670144  RH  047%=      5-min Rain = 0
KMC4 151333Z 17005KT 27/15 A2988 RMK A01 T02670147  RH  048%=      5-min Rain = 0
KMC4 151334Z 17004KT 27/14 A2988 RMK A01 T02670143  RH  046%=      5-min Rain = 0
KMC4 151335Z 18005KT 27/14 A2988 RMK A01 T02680144  RH  047%=      5-min Rain = 0
KMC4 151336Z 18004KT 27/15 A2988 RMK A01 T02680145  RH  047%=      5-min Rain = 0
KMC4 151337Z 17004KT 27/15 A2988 RMK A01 T02680148  RH  048%=      5-min Rain = 0
KMC4 151338Z 16004KT 27/15 A2988 RMK A01 T02690149  RH  048%=      5-min Rain = 0
KMC4 151339Z 17005KT 27/15 A2988 RMK A01 T02690149  RH  048%=      5-min Rain = 0
KMC4 151340Z 17004KT 27/15 A2988 RMK A01 T02690151  RH  048%=      5-min Rain = 0
KMC4 151341Z 17005KT 27/15 A2988 RMK A01 T02700150  RH  048%=      5-min Rain = 0
KMC4 151342Z 18005KT 27/15 A2988 RMK A01 T02700149  RH  047%=      5-min Rain = 0
KMC4 151343Z 17004KT 27/15 A2988 RMK A01 T02700147  RH  047%=      5-min Rain = 0
KMC4 151344Z 17004KT 27/15 A2988 RMK A01 T02700149  RH  047%=      5-min Rain = 0
KMC4 151345Z 17004KT 27/15 A2988 RMK A01 T02700150  RH  048%=      5-min Rain = 0
KMC4 151346Z 16004KT 27/15 A2988 RMK A01 T02710152  RH  048%=      5-min Rain = 0
KMC4 151347Z 16005KT 27/15 A2988 RMK A01 T02710147  RH  047%=      5-min Rain = 0
KMC4 151348Z 17004KT 27/15 A2988 RMK A01 T02710150  RH  047%=      5-min Rain = 0
KMC4 151349Z 17004KT 27/15 A2988 RMK A01 T02720149  RH  047%=      5-min Rain = 0
KMC4 151350Z 16005KT 27/15 A2988 RMK A01 T02710150  RH  047%=      5-min Rain = 0
KMC4 151351Z 17005KT 27/15 A2988 RMK A01 T02720146  RH  046%=      5-min Rain = 0
KMC4 151352Z 16004KT 27/15 A2988 RMK A01 T02720151  RH  048%=      5-min Rain = 0
KMC4 151353Z 16004KT 27/15 A2988 RMK A01 T02720151  RH  047%=      5-min Rain = 0
KMC4 151354Z 17003KT 27/15 A2988 RMK A01 T02720150  RH  047%=      5-min Rain = 0
KMC4 151355Z 19005KT 27/15 A2988 RMK A01 T02720149  RH  047%=      5-min Rain = 0
KMC4 151356Z 18005KT 27/15 A2988 RMK A01 T02720146  RH  046%=      5-min Rain = 0
KMC4 151357Z 17005KT 27/15 A2988 RMK A01 T02730147  RH  046%=      5-min Rain = 0
KMC4 151358Z 17004KT 27/15 A2988 RMK A01 T02740148  RH  046%=      5-min Rain = 0
KMC4 151359Z 16004KT 28/15 A2988 RMK A01 T02750145  RH  045%=      5-min Rain = 0
KMC4 151400Z 17003KT 28/15 A2988 RMK A01 T02760147  RH  045%=      5-min Rain = 0
KMC4 151401Z 17004KT 28/15 A2989 RMK A01 T02760147  RH  045%=      5-min Rain = 0
KMC4 151402Z 17004KT 28/15 A2989 RMK A01 T02770149  RH  046%=      5-min Rain = 0
KMC4 151403Z 15004KT 28/15 A2989 RMK A01 T02770153  RH  047%=      5-min Rain = 0
KMC4 151404Z 15005KT 28/15 A2988 RMK A01 T02770149  RH  045%=      5-min Rain = 0
KMC4 151405Z 16004KT 28/15 A2989 RMK A01 T02780150  RH  046%=      5-min Rain = 0
KMC4 151406Z 16004KT 28/15 A2989 RMK A01 T02780152  RH  046%=      5-min Rain = 0
KMC4 151407Z 15004KT 28/15 A2989 RMK A01 T02790148  RH  045%=      5-min Rain = 0
KMC4 151408Z 15005KT 28/15 A2989 RMK A01 T02800147  RH  044%=      5-min Rain = 0
KMC4 151409Z 14006KT 28/15 A2989 RMK A01 T02810149  RH  044%=      5-min Rain = 0
KMC4 151410Z 14006KT 28/15 A2989 RMK A01 T02820149  RH  044%=      5-min Rain = 0
KMC4 151411Z 14007KT 28/15 A2989 RMK A01 T02840149  RH  044%=      5-min Rain = 0
KMC4 151412Z 16006KT 29/15 A2989 RMK A01 T02850150  RH  044%=      5-min Rain = 0
KMC4 151413Z 16006KT 28/15 A2989 RMK A01 T02840150  RH  044%=      5-min Rain = 0
KMC4 151414Z 13006KT 28/15 A2989 RMK A01 T02830150  RH  044%=      5-min Rain = 0
KMC4 151415Z 15007KT 28/15 A2989 RMK A01 T02840151  RH  044%=      5-min Rain = 0
KMC4 151416Z 14007KT 28/15 A2989 RMK A01 T02840149  RH  044%=      5-min Rain = 0
KMC4 151417Z 18006KT 28/15 A2989 RMK A01 T02840151  RH  044%=      5-min Rain = 0
KMC4 151418Z 17005KT 28/15 A2989 RMK A01 T02840153  RH  045%=      5-min Rain = 0
KMC4 151419Z 15005KT 28/15 A2989 RMK A01 T02840152  RH  045%=      5-min Rain = 0
KMC4 151420Z 16006KT 29/15 A2989 RMK A01 T02850153  RH  045%=      5-min Rain = 0
KMC4 151421Z 16008KT 29/15 A2989 RMK A01 T02850152  RH  044%=      5-min Rain = 0
KMC4 151422Z 17007KT 29/15 A2989 RMK A01 T02860148  RH  043%=      5-min Rain = 0
KMC4 151423Z 16005KT 29/15 A2989 RMK A01 T02850150  RH  044%=      5-min Rain = 0
KMC4 151424Z 15005KT 29/15 A2989 RMK A01 T02850152  RH  044%=      5-min Rain = 0
KMC4 151425Z 15007KT 29/15 A2989 RMK A01 T02850154  RH  045%=      5-min Rain = 0
KMC4 151426Z 19006KT 29/15 A2989 RMK A01 T02860152  RH  044%=      5-min Rain = 0
KMC4 151427Z 17007KT 29/15 A2989 RMK A01 T02860151  RH  044%=      5-min Rain = 0
KMC4 151428Z 15007KT 29/15 A2989 RMK A01 T02860151  RH  044%=      5-min Rain = 0
KMC4 151429Z 15007KT 29/15 A2989 RMK A01 T02870151  RH  044%=      5-min Rain = 0
KMC4 151430Z 16007KT 29/15 A2989 RMK A01 T02870150  RH  043%=      5-min Rain = 0
KMC4 151431Z 17006KT 29/15 A2989 RMK A01 T02870149  RH  043%=      5-min Rain = 0
KMC4 151432Z 18005KT 29/15 A2989 RMK A01 T02870154  RH  044%=      5-min Rain = 0
KMC4 151433Z 18005KT 29/15 A2989 RMK A01 T02880150  RH  043%=      5-min Rain = 0
KMC4 151434Z 19006KT 29/15 A2989 RMK A01 T02880153  RH  044%=      5-min Rain = 0
KMC4 151435Z 20005KT 29/15 A2989 RMK A01 T02900149  RH  042%=      5-min Rain = 0
KMC4 151436Z 19005KT 29/15 A2989 RMK A01 T02910150  RH  042%=      5-min Rain = 0
KMC4 151437Z 18005KT 29/15 A2989 RMK A01 T02910150  RH  042%=      5-min Rain = 0
KMC4 151438Z 19006KT 29/15 A2989 RMK A01 T02910153  RH  043%=      5-min Rain = 0
KMC4 151439Z 20006KT 29/15 A2989 RMK A01 T02910148  RH  042%=      5-min Rain = 0
KMC4 151440Z 20005KT 29/15 A2989 RMK A01 T02910146  RH  041%=      5-min Rain = 0
KMC4 151441Z 20003KT 29/15 A2989 RMK A01 T02900147  RH  042%=      5-min Rain = 0
KMC4 151442Z 19004KT 29/15 A2989 RMK A01 T02910150  RH  042%=      5-min Rain = 0
KMC4 151443Z 20006KT 29/15 A2989 RMK A01 T02930152  RH  042%=      5-min Rain = 0
KMC4 151444Z 19007KT 29/15 A2989 RMK A01 T02940150  RH  041%=      5-min Rain = 0
KMC4 151445Z 21005KT 30/15 A2989 RMK A01 T02950150  RH  041%=      5-min Rain = 0
KMC4 151446Z 20005KT 30/15 A2989 RMK A01 T02950151  RH  041%=      5-min Rain = 0
KMC4 151447Z 19006KT 30/15 A2989 RMK A01 T02960151  RH  041%=      5-min Rain = 0
KMC4 151448Z 18006KT 30/15 A2989 RMK A01 T02960152  RH  041%=      5-min Rain = 0
KMC4 151449Z 16005KT 30/15 A2989 RMK A01 T02970150  RH  041%=      5-min Rain = 0
KMC4 151450Z 17005KT 30/15 A2989 RMK A01 T02960150  RH  041%=      5-min Rain = 0
KMC4 151451Z 17004KT 30/15 A2989 RMK A01 T02960150  RH  041%=      5-min Rain = 0
KMC4 151452Z 19004KT 30/15 A2989 RMK A01 T02970153  RH  042%=      5-min Rain = 0
KMC4 151453Z 17007KT 30/16 A2988 RMK A01 T02980155  RH  042%=      5-min Rain = 0
KMC4 151454Z 18005KT 30/15 A2988 RMK A01 T02990149  RH  040%=      5-min Rain = 0
KMC4 151455Z 17003KT 30/15 A2989 RMK A01 T02990150  RH  040%=      5-min Rain = 0
KMC4 151456Z 18006KT 30/15 A2988 RMK A01 T02990153  RH  041%=      5-min Rain = 0
KMC4 151457Z 18006KT 30/15 A2988 RMK A01 T03000153  RH  041%=      5-min Rain = 0
KMC4 151458Z 16005KT 30/15 A2988 RMK A01 T03010152  RH  040%=      5-min Rain = 0
KMC4 151459Z 16007KT 30/15 A2988 RMK A01 T03020153  RH  041%=      5-min Rain = 0
KMC4 151500Z 17008KT 30/15 A2988 RMK A01 T03020153  RH  040%=      5-min Rain = 0
KMC4 151501Z 19004KT 30/15 A2988 RMK A01 T03030152  RH  040%=      5-min Rain = 0
KMC4 151502Z 19004KT 30/15 A2989 RMK A01 T03030153  RH  040%=      5-min Rain = 0
KMC4 151503Z 20006KT 30/15 A2989 RMK A01 T03040154  RH  040%=      5-min Rain = 0
KMC4 151504Z 21006KT 31/15 A2989 RMK A01 T03050151  RH  039%=      5-min Rain = 0
KMC4 151505Z 19006KT 31/15 A2989 RMK A01 T03050152  RH  039%=      5-min Rain = 0
KMC4 151506Z 18006KT 31/15 A2989 RMK A01 T03050151  RH  039%=      5-min Rain = 0
KMC4 151507Z 17006KT 30/15 A2989 RMK A01 T03040151  RH  040%=      5-min Rain = 0
KMC4 151508Z 18005KT 30/15 A2989 RMK A01 T03040152  RH  040%=      5-min Rain = 0
KMC4 151509Z 18005KT 31/15 A2989 RMK A01 T03050151  RH  039%=      5-min Rain = 0
KMC4 151510Z 17005KT 31/16 A2989 RMK A01 T03060156  RH  040%=      5-min Rain = 0
KMC4 151511Z 18007KT 31/15 A2988 RMK A01 T03080154  RH  039%=      5-min Rain = 0
KMC4 151512Z 18007KT 31/15 A2989 RMK A01 T03090153  RH  039%=      5-min Rain = 0
KMC4 151513Z 18005KT 31/15 A2989 RMK A01 T03080152  RH  039%=      5-min Rain = 0
KMC4 151514Z 19005KT 31/15 A2989 RMK A01 T03080151  RH  039%=      5-min Rain = 0
KMC4 151515Z 18005KT 31/16 A2988 RMK A01 T03090157  RH  040%=      5-min Rain = 0
KMC4 151516Z 17006KT 31/16 A2988 RMK A01 T03100155  RH  039%=      5-min Rain = 0
KMC4 151517Z 16006KT 31/15 A2988 RMK A01 T03110153  RH  038%=      5-min Rain = 0
KMC4 151518Z 15005KT 31/16 A2988 RMK A01 T03110155  RH  039%=      5-min Rain = 0
KMC4 151519Z 17005KT 31/15 A2988 RMK A01 T03120153  RH  038%=      5-min Rain = 0
KMC4 151520Z 18008KT 31/15 A2988 RMK A01 T03120152  RH  038%=      5-min Rain = 0
KMC4 151521Z 20005KT 31/15 A2988 RMK A01 T03120150  RH  037%=      5-min Rain = 0
KMC4 151522Z 19005KT 31/15 A2988 RMK A01 T03120150  RH  037%=      5-min Rain = 0
KMC4 151523Z 19005KT 31/15 A2988 RMK A01 T03110149  RH  037%=      5-min Rain = 0
KMC4 151524Z 21005KT 31/15 A2988 RMK A01 T03120149  RH  037%=      5-min Rain = 0
KMC4 151525Z 22004KT 31/15 A2988 RMK A01 T03130149  RH  037%=      5-min Rain = 0
KMC4 151526Z 22003KT 31/15 A2988 RMK A01 T03130149  RH  037%=      5-min Rain = 0
KMC4 151527Z 21002KT 31/15 A2988 RMK A01 T03130147  RH  037%=      5-min Rain = 0
KMC4 151528Z 20002KT 31/15 A2988 RMK A01 T03120148  RH  037%=      5-min Rain = 0
KMC4 151529Z 18003KT 31/15 A2988 RMK A01 T03140152  RH  038%=      5-min Rain = 0
KMC4 151530Z 20002KT 32/15 A2988 RMK A01 T03170154  RH  037%=      5-min Rain = 0
KMC4 151531Z 23003KT 32/15 A2988 RMK A01 T03190153  RH  037%=      5-min Rain = 0
KMC4 151532Z 20004KT 32/15 A2988 RMK A01 T03200153  RH  036%=      5-min Rain = 0
KMC4 151533Z 19002KT 32/15 A2988 RMK A01 T03210152  RH  036%=      5-min Rain = 0
KMC4 151534Z 23000KT 32/15 A2988 RMK A01 T03210151  RH  036%=      5-min Rain = 0
KMC4 151535Z 23002KT 32/15 A2988 RMK A01 T03220151  RH  036%=      5-min Rain = 0
KMC4 151536Z 22005KT 32/15 A2988 RMK A01 T03230152  RH  036%=      5-min Rain = 0
KMC4 151537Z 21007KT 32/15 A2988 RMK A01 T03240147  RH  034%=      5-min Rain = 0
KMC4 151538Z 21007KT 32/15 A2988 RMK A01 T03240146  RH  034%=      5-min Rain = 0
KMC4 151539Z 24006KT 32/15 A2988 RMK A01 T03240149  RH  035%=      5-min Rain = 0
KMC4 151540Z 22007KT 33/15 A2988 RMK A01 T03250149  RH  035%=      5-min Rain = 0
KMC4 151541Z 21007KT 33/15 A2988 RMK A01 T03260149  RH  034%=      5-min Rain = 0
KMC4 151542Z 22006KT 33/15 A2988 RMK A01 T03270150  RH  034%=      5-min Rain = 0
KMC4 151543Z 23006KT 33/15 A2988 RMK A01 T03280150  RH  034%=      5-min Rain = 0
KMC4 151544Z 24007KT 33/15 A2988 RMK A01 T03300152  RH  034%=      5-min Rain = 0
KMC4 151545Z 23006KT 33/15 A2988 RMK A01 T03330145  RH  032%=      5-min Rain = 0
KMC4 151546Z 22009G14KT 33/14 A2987 RMK A01 T03330141  RH  031%=      5-min Rain = 0
KMC4 151547Z 26013KT 33/14 A2987 RMK A01 T03340135  RH  030%=      5-min Rain = 0
KMC4 151548Z 25012KT 34/14 A2987 RMK A01 T03360138  RH  030%=      5-min Rain = 0
KMC4 151549Z 24010KT 34/13 A2987 RMK A01 T03380132  RH  029%=      5-min Rain = 0
KMC4 151550Z 24007KT 34/13 A2987 RMK A01 T03360131  RH  029%=      5-min Rain = 0
KMC4 151551Z 25008KT 34/13 A2987 RMK A01 T03360134  RH  030%=      5-min Rain = 0
KMC4 151552Z 26011KT 34/13 A2987 RMK A01 T03370132  RH  029%=      5-min Rain = 0
KMC4 151553Z 26009KT 34/13 A2987 RMK A01 T03390128  RH  028%=      5-min Rain = 0
KMC4 151554Z 25010KT 34/13 A2987 RMK A01 T03390128  RH  028%=      5-min Rain = 0
KMC4 151555Z 24012KT 34/13 A2987 RMK A01 T03390125  RH  027%=      5-min Rain = 0
KMC4 151556Z 26010KT 34/13 A2987 RMK A01 T03400125  RH  027%=      5-min Rain = 0
KMC4 151557Z 28013KT 34/13 A2987 RMK A01 T03410128  RH  028%=      5-min Rain = 0
KMC4 151558Z 28013KT 34/13 A2987 RMK A01 T03420131  RH  028%=      5-min Rain = 0
KMC4 151559Z 25012G17KT 34/13 A2987 RMK A01 T03440133  RH  028%=      5-min Rain = 0
KMC4 151600Z 25011KT 35/13 A2987 RMK A01 T03460128  RH  027%=      5-min Rain = 0
KMC4 151601Z 26010KT 35/13 A2987 RMK A01 T03450132  RH  028%=      5-min Rain = 0
KMC4 151602Z 25009KT 34/13 A2987 RMK A01 T03430134  RH  028%=      5-min Rain = 0
KMC4 151603Z 26011KT 35/13 A2987 RMK A01 T03450134  RH  028%=      5-min Rain = 0
KMC4 151604Z 25011KT 34/13 A2987 RMK A01 T03440130  RH  027%=      5-min Rain = 0
KMC4 151605Z 26011KT 34/13 A2987 RMK A01 T03430133  RH  028%=      5-min Rain = 0
KMC4 151606Z 25013KT 35/13 A2987 RMK A01 T03450130  RH  027%=      5-min Rain = 0
KMC4 151607Z 27012KT 35/13 A2987 RMK A01 T03480133  RH  027%=      5-min Rain = 0
KMC4 151608Z 28013KT 35/13 A2987 RMK A01 T03490125  RH  026%=      5-min Rain = 0
KMC4 151609Z 26012KT 35/13 A2987 RMK A01 T03460126  RH  026%=      5-min Rain = 0
KMC4 151610Z 25011KT 34/13 A2987 RMK A01 T03440127  RH  027%=      5-min Rain = 0
KMC4 151611Z 26014G20KT 34/13 A2987 RMK A01 T03430125  RH  027%=      5-min Rain = 0
KMC4 151612Z 27016KT 34/12 A2986 RMK A01 T03440121  RH  026%=      5-min Rain = 0
KMC4 151613Z 25015KT 34/12 A2986 RMK A01 T03430120  RH  026%=      5-min Rain = 0
KMC4 151614Z 26013KT 34/12 A2986 RMK A01 T03420124  RH  027%=      5-min Rain = 0
KMC4 151615Z 25013KT 34/13 A2986 RMK A01 T03440125  RH  027%=      5-min Rain = 0
KMC4 151616Z 26012KT 35/13 A2987 RMK A01 T03450125  RH  026%=      5-min Rain = 0
KMC4 151617Z 26010KT 35/13 A2987 RMK A01 T03460129  RH  027%=      5-min Rain = 0
KMC4 151618Z 26009KT 35/13 A2987 RMK A01 T03450127  RH  027%=      5-min Rain = 0
KMC4 151619Z 25013KT 35/13 A2986 RMK A01 T03460126  RH  027%=      5-min Rain = 0
KMC4 151620Z 25014KT 35/12 A2986 RMK A01 T03460122  RH  026%=      5-min Rain = 0
KMC4 151621Z 26013KT 35/13 A2987 RMK A01 T03460125  RH  026%=      5-min Rain = 0
KMC4 151622Z 26013KT 35/13 A2987 RMK A01 T03460127  RH  027%=      5-min Rain = 0
KMC4 151623Z 28015KT 35/12 A2986 RMK A01 T03470120  RH  025%=      5-min Rain = 0
KMC4 151624Z 28013KT 35/12 A2987 RMK A01 T03480118  RH  025%=      5-min Rain = 0
KMC4 151625Z 28016KT 35/12 A2986 RMK A01 T03480120  RH  025%=      5-min Rain = 0
KMC4 151626Z 28015KT 35/12 A2987 RMK A01 T03490118  RH  025%=      5-min Rain = 0
KMC4 151627Z 29010KT 35/12 A2987 RMK A01 T03480118  RH  025%=      5-min Rain = 0
KMC4 151628Z 30016KT 35/12 A2987 RMK A01 T03480120  RH  025%=      5-min Rain = 0
KMC4 151629Z 28017G22KT 35/12 A2986 RMK A01 T03480120  RH  025%=      5-min Rain = 0
KMC4 151630Z 27013KT 35/12 A2987 RMK A01 T03470121  RH  025%=      5-min Rain = 0
KMC4 151631Z 29015KT 35/12 A2986 RMK A01 T03470122  RH  026%=      5-min Rain = 0
KMC4 151632Z 28017KT 35/12 A2987 RMK A01 T03470121  RH  026%=      5-min Rain = 0
KMC4 151633Z 27015KT 35/12 A2987 RMK A01 T03480121  RH  025%=      5-min Rain = 0
KMC4 151634Z 28012KT 35/12 A2987 RMK A01 T03490121  RH  025%=      5-min Rain = 0
KMC4 151635Z 27015KT 35/13 A2987 RMK A01 T03500125  RH  026%=      5-min Rain = 0
KMC4 151636Z 28014KT 35/13 A2987 RMK A01 T03490126  RH  026%=      5-min Rain = 0
KMC4 151637Z 28014KT 35/12 A2987 RMK A01 T03480122  RH  025%=      5-min Rain = 0
KMC4 151638Z 29013KT 35/13 A2987 RMK A01 T03470125  RH  026%=      5-min Rain = 0
KMC4 151639Z 29012KT 35/13 A2987 RMK A01 T03490126  RH  026%=      5-min Rain = 0
KMC4 151640Z 29012KT 35/13 A2987 RMK A01 T03490127  RH  026%=      5-min Rain = 0
KMC4 151641Z 29016KT 35/13 A2987 RMK A01 T03490128  RH  026%=      5-min Rain = 0
KMC4 151642Z 29012KT 35/13 A2987 RMK A01 T03490126  RH  026%=      5-min Rain = 0
KMC4 151643Z 29011KT 35/13 A2987 RMK A01 T03480128  RH  027%=      5-min Rain = 0
KMC4 151644Z 29013KT 35/13 A2987 RMK A01 T03490130  RH  027%=      5-min Rain = 0
KMC4 151645Z 29015KT 35/13 A2987 RMK A01 T03490131  RH  027%=      5-min Rain = 0
KMC4 151646Z 29014KT 35/13 A2987 RMK A01 T03490130  RH  027%=      5-min Rain = 0
KMC4 151647Z 28012KT 35/13 A2987 RMK A01 T03480131  RH  027%=      5-min Rain = 0
KMC4 151648Z 27012G17KT 35/13 A2987 RMK A01 T03480132  RH  027%=      5-min Rain = 0
KMC4 151649Z 26016KT 35/13 A2986 RMK A01 T03490133  RH  027%=      5-min Rain = 0
KMC4 151650Z 25017KT 35/13 A2986 RMK A01 T03490133  RH  027%=      5-min Rain = 0
KMC4 151651Z 26012KT 35/13 A2987 RMK A01 T03480134  RH  028%=      5-min Rain = 0
KMC4 151652Z 26014KT 35/13 A2987 RMK A01 T03480134  RH  028%=      5-min Rain = 0
KMC4 151653Z 27014KT 35/13 A2987 RMK A01 T03470133  RH  028%=      5-min Rain = 0
KMC4 151654Z 27012KT 35/14 A2987 RMK A01 T03460136  RH  028%=      5-min Rain = 0
KMC4 151655Z 26012KT 35/14 A2987 RMK A01 T03460136  RH  028%=      5-min Rain = 0
KMC4 151656Z 26010KT 35/14 A2987 RMK A01 T03450138  RH  029%=      5-min Rain = 0
KMC4 151657Z 27011KT 35/14 A2987 RMK A01 T03450139  RH  029%=      5-min Rain = 0
KMC4 151658Z 28014KT 35/14 A2987 RMK A01 T03470139  RH  029%=      5-min Rain = 0
KMC4 151659Z 28011KT 35/14 A2987 RMK A01 T03480139  RH  029%=      5-min Rain = 0
KMC4 151700Z 28009KT 35/14 A2987 RMK A01 T03490138  RH  028%=      5-min Rain = 0
KMC4 151701Z 30009KT 35/14 A2987 RMK A01 T03480138  RH  028%=      5-min Rain = 0
KMC4 151702Z 27010G15KT 35/14 A2987 RMK A01 T03490140  RH  029%=      5-min Rain = 0
KMC4 151703Z 27011KT 35/14 A2986 RMK A01 T03490141  RH  029%=      5-min Rain = 0
KMC4 151704Z 27008KT 35/14 A2986 RMK A01 T03490140  RH  029%=      5-min Rain = 0
KMC4 151705Z 28010KT 35/14 A2986 RMK A01 T03490142  RH  029%=      5-min Rain = 0
KMC4 151706Z 27010G15KT 35/15 A2986 RMK A01 T03510145  RH  029%=      5-min Rain = 0
KMC4 151707Z 28012KT 35/14 A2986 RMK A01 T03540136  RH  027%=      5-min Rain = 0
KMC4 151708Z 29010KT 36/13 A2986 RMK A01 T03550134  RH  027%=      5-min Rain = 0
KMC4 151709Z 29008KT 35/13 A2987 RMK A01 T03520132  RH  027%=      5-min Rain = 0
KMC4 151710Z 28012KT 35/14 A2986 RMK A01 T03500136  RH  028%=      5-min Rain = 0
KMC4 151711Z 30013KT 35/13 A2986 RMK A01 T03530134  RH  027%=      5-min Rain = 0
KMC4 151712Z 29008KT 35/13 A2987 RMK A01 T03540131  RH  026%=      5-min Rain = 0
KMC4 151713Z 29011KT 35/13 A2987 RMK A01 T03540132  RH  026%=      5-min Rain = 0
KMC4 151714Z 29010KT 35/13 A2987 RMK A01 T03530134  RH  027%=      5-min Rain = 0
KMC4 151715Z 28009KT 35/14 A2987 RMK A01 T03530137  RH  027%=      5-min Rain = 0
KMC4 151716Z 28008G13KT 35/14 A2986 RMK A01 T03530137  RH  027%=      5-min Rain = 0
KMC4 151717Z 27010KT 35/14 A2986 RMK A01 T03540135  RH  027%=      5-min Rain = 0
KMC4 151718Z 28008KT 35/13 A2986 RMK A01 T03540134  RH  027%=      5-min Rain = 0
KMC4 151719Z 30012KT 35/13 A2986 RMK A01 T03540132  RH  026%=      5-min Rain = 0
KMC4 151720Z 29013KT 35/13 A2986 RMK A01 T03540133  RH  027%=      5-min Rain = 0
KMC4 151721Z 29011KT 36/13 A2986 RMK A01 T03550134  RH  027%=      5-min Rain = 0
KMC4 151722Z 28010KT 36/13 A2986 RMK A01 T03560133  RH  026%=      5-min Rain = 0
KMC4 151723Z 25011KT 36/14 A2986 RMK A01 T03570137  RH  027%=      5-min Rain = 0
KMC4 151724Z 25013KT 36/14 A2986 RMK A01 T03580139  RH  027%=      5-min Rain = 0
KMC4 151725Z 26012KT 36/14 A2986 RMK A01 T03590140  RH  027%=      5-min Rain = 0
KMC4 151726Z 28010KT 36/14 A2986 RMK A01 T03590138  RH  027%=      5-min Rain = 0
KMC4 151727Z 27008KT 36/13 A2986 RMK A01 T03580134  RH  026%=      5-min Rain = 0
KMC4 151728Z 27008KT 36/14 A2986 RMK A01 T03560135  RH  027%=      5-min Rain = 0
KMC4 151729Z 26009KT 36/14 A2986 RMK A01 T03570138  RH  027%=      5-min Rain = 0
KMC4 151730Z 27010KT 36/12 A2986 RMK A01 T03600122  RH  024%=      5-min Rain = 0
KMC4 151731Z 27008KT 36/11 A2986 RMK A01 T03610112  RH  022%=      5-min Rain = 0
KMC4 151732Z 29009KT 36/12 A2986 RMK A01 T03630120  RH  023%=      5-min Rain = 0
KMC4 151733Z 27008KT 37/12 A2985 RMK A01 T03660120  RH  023%=      5-min Rain = 0
KMC4 151734Z 26006KT 37/13 A2986 RMK A01 T03670127  RH  024%=      5-min Rain = 0
KMC4 151735Z 26014KT 36/13 A2985 RMK A01 T03640125  RH  024%=      5-min Rain = 0
KMC4 151736Z 26013KT 36/11 A2985 RMK A01 T03640114  RH  022%=      5-min Rain = 0
KMC4 151737Z 27016KT 37/11 A2985 RMK A01 T03650110  RH  021%=      5-min Rain = 0
KMC4 151738Z 27014KT 37/11 A2985 RMK A01 T03680109  RH  021%=      5-min Rain = 0
KMC4 151739Z 30011KT 37/10 A2986 RMK A01 T03680101  RH  020%=      5-min Rain = 0
KMC4 151740Z 30010KT 37/10 A2985 RMK A01 T03690098  RH  019%=      5-min Rain = 0
KMC4 151741Z 30012KT 37/09 A2985 RMK A01 T03700093  RH  019%=      5-min Rain = 0
KMC4 151742Z 30013KT 37/09 A2985 RMK A01 T03710093  RH  019%=      5-min Rain = 0
KMC4 151743Z 29013G18KT 37/09 A2985 RMK A01 T03710093  RH  019%=      5-min Rain = 0
KMC4 151744Z 29010KT 37/10 A2985 RMK A01 T03720098  RH  019%=      5-min Rain = 0
KMC4 151745Z 30010KT 38/10 A2985 RMK A01 T03750097  RH  019%=      5-min Rain = 0
KMC4 151746Z 31010KT 38/10 A2985 RMK A01 T03780099  RH  019%=      5-min Rain = 0
KMC4 151747Z 28008KT 38/10 A2985 RMK A01 T03790102  RH  019%=      5-min Rain = 0
KMC4 151748Z 29011G17KT 38/10 A2985 RMK A01 T03800103  RH  019%=      5-min Rain = 0
KMC4 151749Z 30012KT 38/10 A2985 RMK A01 T03790096  RH  018%=      5-min Rain = 0
KMC4 151750Z 28014KT 38/10 A2985 RMK A01 T03780097  RH  018%=      5-min Rain = 0
KMC4 151751Z 27011KT 38/09 A2985 RMK A01 T03780090  RH  018%=      5-min Rain = 0
KMC4 151752Z 26009KT 37/09 A2985 RMK A01 T03730090  RH  018%=      5-min Rain = 0
KMC4 151753Z 26013G18KT 37/09 A2985 RMK A01 T03710090  RH  018%=      5-min Rain = 0
KMC4 151754Z 26012KT 37/09 A2985 RMK A01 T03710092  RH  018%=      5-min Rain = 0
KMC4 151755Z 27011KT 37/09 A2985 RMK A01 T03730091  RH  018%=      5-min Rain = 0
KMC4 151756Z 27014KT 37/09 A2985 RMK A01 T03740090  RH  018%=      5-min Rain = 0
KMC4 151757Z 29013KT 37/08 A2985 RMK A01 T03740081  RH  017%=      5-min Rain = 0
KMC4 151758Z 29014KT 37/08 A2985 RMK A01 T03740079  RH  017%=      5-min Rain = 0
KMC4 151759Z 30010KT 38/07 A2985 RMK A01 T03750074  RH  016%=      5-min Rain = 0
KMC4 151800Z 30009G14KT 37/08 A2985 RMK A01 T03740077  RH  016%=      5-min Rain = 0
KMC4 151801Z 29015G20KT 37/08 A2985 RMK A01 T03740078  RH  016%=      5-min Rain = 0
KMC4 151802Z 28014KT 38/08 A2985 RMK A01 T03760080  RH  017%=      5-min Rain = 0
KMC4 151803Z 28012KT 38/08 A2985 RMK A01 T03770077  RH  016%=      5-min Rain = 0
KMC4 151804Z 29010G15KT 38/08 A2985 RMK A01 T03770081  RH  017%=      5-min Rain = 0
KMC4 151805Z 28012G18KT 38/08 A2985 RMK A01 T03780077  RH  016%=      5-min Rain = 0
KMC4 151806Z 28020KT 38/07 A2985 RMK A01 T03790068  RH  015%=      5-min Rain = 0
KMC4 151807Z 30017KT 38/07 A2985 RMK A01 T03780066  RH  015%=      5-min Rain = 0
KMC4 151808Z 30015G22KT 38/06 A2985 RMK A01 T03770063  RH  015%=      5-min Rain = 0
KMC4 151809Z 30018G23KT 38/06 A2985 RMK A01 T03770060  RH  014%=      5-min Rain = 0
KMC4 151810Z 30014KT 38/06 A2985 RMK A01 T03760061  RH  015%=      5-min Rain = 0
KMC4 151811Z 30015KT 38/06 A2985 RMK A01 T03780060  RH  014%=      5-min Rain = 0
KMC4 151812Z 30013G18KT 38/07 A2985 RMK A01 T03780065  RH  015%=      5-min Rain = 0
KMC4 151813Z 28014G19KT 38/06 A2985 RMK A01 T03800057  RH  014%=      5-min Rain = 0
KMC4 151814Z 28015KT 38/06 A2985 RMK A01 T03800064  RH  014%=      5-min Rain = 0
KMC4 151815Z 28014KT 38/06 A2985 RMK A01 T03800055  RH  014%=      5-min Rain = 0
KMC4 151816Z 28013KT 38/06 A2985 RMK A01 T03790058  RH  014%=      5-min Rain = 0
KMC4 151817Z 29014KT 38/07 A2985 RMK A01 T03770066  RH  015%=      5-min Rain = 0
KMC4 151818Z 30015KT 38/06 A2985 RMK A01 T03770060  RH  014%=      5-min Rain = 0
KMC4 151819Z 29011KT 38/06 A2985 RMK A01 T03780059  RH  014%=      5-min Rain = 0
KMC4 151820Z 28015KT 38/06 A2985 RMK A01 T03800060  RH  014%=      5-min Rain = 0
KMC4 151821Z 30016KT 38/06 A2985 RMK A01 T03790061  RH  014%=      5-min Rain = 0
KMC4 151822Z 29013KT 38/06 A2985 RMK A01 T03770059  RH  014%=      5-min Rain = 0
KMC4 151823Z 28011KT 38/06 A2985 RMK A01 T03780059  RH  014%=      5-min Rain = 0
KMC4 151824Z 27014KT 38/06 A2984 RMK A01 T03780060  RH  014%=      5-min Rain = 0
KMC4 151825Z 25011KT 38/06 A2984 RMK A01 T03760059  RH  014%=      5-min Rain = 0
KMC4 151826Z 26010KT 38/06 A2984 RMK A01 T03750062  RH  015%=      5-min Rain = 0
KMC4 151827Z 28010KT 38/07 A2984 RMK A01 T03760066  RH  015%=      5-min Rain = 0
KMC4 151828Z 30011KT 38/07 A2984 RMK A01 T03820068  RH  015%=      5-min Rain = 0
KMC4 151829Z 28013KT 38/07 A2984 RMK A01 T03840066  RH  014%=      5-min Rain = 0
KMC4 151830Z 27015KT 38/06 A2984 RMK A01 T03820059  RH  014%=      5-min Rain = 0
KMC4 151831Z 27013KT 38/06 A2984 RMK A01 T03790056  RH  014%=      5-min Rain = 0
KMC4 151832Z 28013KT 38/05 A2984 RMK A01 T03780054  RH  014%=      5-min Rain = 0
KMC4 151833Z 27011G16KT 38/06 A2984 RMK A01 T03770055  RH  014%=      5-min Rain = 0
KMC4 151834Z 28013KT 38/06 A2984 RMK A01 T03770055  RH  014%=      5-min Rain = 0
KMC4 151835Z 28016KT 38/05 A2984 RMK A01 T03800052  RH  013%=      5-min Rain = 0
KMC4 151836Z 27015KT 38/05 A2984 RMK A01 T03830048  RH  013%=      5-min Rain = 0
KMC4 151837Z 26018KT 38/05 A2984 RMK A01 T03810047  RH  013%=      5-min Rain = 0
KMC4 151838Z 27017G22KT 38/05 A2984 RMK A01 T03800049  RH  013%=      5-min Rain = 0
KMC4 151839Z 27013KT 38/04 A2984 RMK A01 T03820042  RH  012%=      5-min Rain = 0
KMC4 151840Z 27012KT 38/04 A2984 RMK A01 T03800044  RH  013%=      5-min Rain = 0
KMC4 151841Z 28012KT 38/05 A2984 RMK A01 T03790048  RH  013%=      5-min Rain = 0
KMC4 151842Z 29013G19KT 38/05 A2984 RMK A01 T03800053  RH  013%=      5-min Rain = 0
KMC4 151843Z 28014KT 38/05 A2984 RMK A01 T03810049  RH  013%=      5-min Rain = 0
KMC4 151844Z 29011KT 38/05 A2984 RMK A01 T03810054  RH  013%=      5-min Rain = 0
KMC4 151845Z 28011KT 38/06 A2984 RMK A01 T03830057  RH  014%=      5-min Rain = 0
KMC4 151846Z 28009KT 38/06 A2984 RMK A01 T03820059  RH  014%=      5-min Rain = 0
KMC4 151847Z 28010KT 38/06 A2984 RMK A01 T03800064  RH  015%=      5-min Rain = 0
KMC4 151848Z 31014KT 38/06 A2984 RMK A01 T03820064  RH  014%=      5-min Rain = 0
KMC4 151849Z 29015KT 38/06 A2984 RMK A01 T03840063  RH  014%=      5-min Rain = 0
KMC4 151850Z 28015KT 38/06 A2984 RMK A01 T03830059  RH  014%=      5-min Rain = 0
KMC4 151851Z 27013KT 38/06 A2984 RMK A01 T03790059  RH  014%=      5-min Rain = 0
KMC4 151852Z 28014KT 38/06 A2984 RMK A01 T03770060  RH  014%=      5-min Rain = 0
KMC4 151853Z 29011KT 38/06 A2984 RMK A01 T03790061  RH  014%=      5-min Rain = 0
KMC4 151854Z 28013KT 38/06 A2984 RMK A01 T03800064  RH  014%=      5-min Rain = 0
KMC4 151855Z 28014KT 38/07 A2984 RMK A01 T03810070  RH  015%=      5-min Rain = 0
KMC4 151856Z 27014KT 38/07 A2984 RMK A01 T03800070  RH  015%=      5-min Rain = 0
KMC4 151857Z 26009KT 38/07 A2984 RMK A01 T03800071  RH  015%=      5-min Rain = 0
KMC4 151858Z 30009KT 38/07 A2984 RMK A01 T03810068  RH  015%=      5-min Rain = 0
KMC4 151859Z 29009KT 38/07 A2983 RMK A01 T03840071  RH  015%=      5-min Rain = 0
KMC4 151900Z 28012KT 39/07 A2983 RMK A01 T03860072  RH  015%=      5-min Rain = 0
KMC4 151901Z 29013KT 39/07 A2983 RMK A01 T03860070  RH  015%=      5-min Rain = 0
KMC4 151902Z 31011KT 39/07 A2983 RMK A01 T03850070  RH  015%=      5-min Rain = 0
KMC4 151903Z 29012KT 39/07 A2983 RMK A01 T03850069  RH  015%=      5-min Rain = 0
KMC4 151904Z 29010KT 39/07 A2983 RMK A01 T03850068  RH  015%=      5-min Rain = 0
KMC4 151905Z 28007KT 38/07 A2983 RMK A01 T03820070  RH  015%=      5-min Rain = 0
KMC4 151906Z 31007KT 38/07 A2983 RMK A01 T03830069  RH  015%=      5-min Rain = 0
KMC4 151907Z 30010KT 38/07 A2983 RMK A01 T03840072  RH  015%=      5-min Rain = 0
KMC4 151908Z 30011KT 39/07 A2983 RMK A01 T03860068  RH  014%=      5-min Rain = 0
KMC4 151909Z 29011KT 39/07 A2983 RMK A01 T03870069  RH  014%=      5-min Rain = 0
KMC4 151910Z 29009KT 38/07 A2983 RMK A01 T03830065  RH  014%=      5-min Rain = 0
KMC4 151911Z 29007KT 38/07 A2983 RMK A01 T03810065  RH  015%=      5-min Rain = 0
KMC4 151912Z 29007KT 38/07 A2983 RMK A01 T03790066  RH  015%=      5-min Rain = 0
KMC4 151913Z 28011G16KT 38/07 A2983 RMK A01 T03800071  RH  015%=      5-min Rain = 0
KMC4 151914Z 27010KT 38/07 A2983 RMK A01 T03830068  RH  015%=      5-min Rain = 0
KMC4 151915Z 28010G16KT 38/07 A2983 RMK A01 T03810071  RH  015%=      5-min Rain = 0
KMC4 151916Z 28014KT 38/07 A2983 RMK A01 T03820070  RH  015%=      5-min Rain = 0
KMC4 151917Z 27012KT 39/07 A2983 RMK A01 T03850072  RH  015%=      5-min Rain = 0
KMC4 151918Z 27012KT 38/07 A2983 RMK A01 T03840074  RH  015%=      5-min Rain = 0
KMC4 151919Z 26013KT 39/07 A2983 RMK A01 T03850070  RH  015%=      5-min Rain = 0
KMC4 151920Z 26012KT 39/07 A2983 RMK A01 T03850070  RH  015%=      5-min Rain = 0
KMC4 151921Z 25010KT 38/07 A2983 RMK A01 T03840069  RH  015%=      5-min Rain = 0
KMC4 151922Z 23008KT 38/07 A2983 RMK A01 T03810070  RH  015%=      5-min Rain = 0
KMC4 151923Z 23006KT 38/06 A2983 RMK A01 T03800061  RH  014%=      5-min Rain = 0
KMC4 151924Z 24007G15KT 38/07 A2983 RMK A01 T03800066  RH  015%=      5-min Rain = 0
KMC4 151925Z 28014KT 38/08 A2982 RMK A01 T03840076  RH  015%=      5-min Rain = 0
KMC4 151926Z 27013KT 39/07 A2982 RMK A01 T03880071  RH  015%=      5-min Rain = 0
KMC4 151927Z 26012KT 39/07 A2982 RMK A01 T03870073  RH  015%=      5-min Rain = 0
KMC4 151928Z 27009G16KT 39/07 A2982 RMK A01 T03850069  RH  015%=      5-min Rain = 0
KMC4 151929Z 29014KT 38/07 A2982 RMK A01 T03830070  RH  015%=      5-min Rain = 0
KMC4 151930Z 25014KT 39/07 A2982 RMK A01 T03850074  RH  015%=      5-min Rain = 0
KMC4 151931Z 25015KT 39/07 A2982 RMK A01 T03860073  RH  015%=      5-min Rain = 0
KMC4 151932Z 26014KT 39/07 A2982 RMK A01 T03850070  RH  015%=      5-min Rain = 0
KMC4 151933Z 25010KT 39/07 A2982 RMK A01 T03850071  RH  015%=      5-min Rain = 0
KMC4 151934Z 24009KT 38/07 A2982 RMK A01 T03840066  RH  014%=      5-min Rain = 0
KMC4 151935Z 23008KT 38/07 A2982 RMK A01 T03840073  RH  015%=      5-min Rain = 0
KMC4 151936Z 25007KT 39/07 A2982 RMK A01 T03870069  RH  014%=      5-min Rain = 0
KMC4 151937Z 29008KT 39/07 A2982 RMK A01 T03860068  RH  014%=      5-min Rain = 0
KMC4 151938Z 29013KT 39/07 A2982 RMK A01 T03860069  RH  014%=      5-min Rain = 0
KMC4 151939Z 29011KT 39/07 A2982 RMK A01 T03870066  RH  014%=      5-min Rain = 0
KMC4 151940Z 30008KT 39/07 A2982 RMK A01 T03870066  RH  014%=      5-min Rain = 0
KMC4 151941Z 28007KT 39/07 A2982 RMK A01 T03860065  RH  014%=      5-min Rain = 0
KMC4 151942Z 27008KT 38/07 A2982 RMK A01 T03840067  RH  014%=      5-min Rain = 0
KMC4 151943Z 27011KT 38/07 A2982 RMK A01 T03840071  RH  015%=      5-min Rain = 0
KMC4 151944Z 27012KT 38/07 A2982 RMK A01 T03840073  RH  015%=      5-min Rain = 0
KMC4 151945Z 29014KT 39/08 A2982 RMK A01 T03880075  RH  015%=      5-min Rain = 0
KMC4 151946Z 30013KT 39/07 A2982 RMK A01 T03910069  RH  014%=      5-min Rain = 0
KMC4 151947Z 31010KT 39/07 A2982 RMK A01 T03910067  RH  014%=      5-min Rain = 0
KMC4 151948Z 29008KT 39/07 A2982 RMK A01 T03890066  RH  014%=      5-min Rain = 0
KMC4 151949Z 29010KT 39/07 A2982 RMK A01 T03870067  RH  014%=      5-min Rain = 0
KMC4 151950Z 31006G11KT 39/07 A2982 RMK A01 T03890072  RH  015%=      5-min Rain = 0
KMC4 151951Z 31008KT 39/07 A2982 RMK A01 T03920070  RH  014%=      5-min Rain = 0
KMC4 151952Z 31009KT 39/07 A2982 RMK A01 T03920073  RH  014%=      5-min Rain = 0
KMC4 151953Z 30009KT 40/08 A2982 RMK A01 T03960078  RH  015%=      5-min Rain = 0
KMC4 151954Z 30008KT 40/07 A2982 RMK A01 T03960069  RH  014%=      5-min Rain = 0
KMC4 151955Z 27010KT 39/08 A2982 RMK A01 T03940077  RH  015%=      5-min Rain = 0
KMC4 151956Z 28012KT 39/08 A2982 RMK A01 T03940075  RH  014%=      5-min Rain = 0
KMC4 151957Z 29010KT 39/07 A2982 RMK A01 T03940070  RH  014%=      5-min Rain = 0
KMC4 151958Z 28015KT 39/07 A2981 RMK A01 T03920073  RH  014%=      5-min Rain = 0
KMC4 151959Z 28014KT 39/07 A2982 RMK A01 T03920068  RH  014%=      5-min Rain = 0
KMC4 152000Z 28016KT 39/07 A2981 RMK A01 T03930071  RH  014%=      5-min Rain = 0
KMC4 152001Z 28013KT 39/07 A2981 RMK A01 T03920070  RH  014%=      5-min Rain = 0
KMC4 152002Z 28013KT 39/07 A2981 RMK A01 T03940073  RH  014%=      5-min Rain = 0
KMC4 152003Z 28013KT 40/07 A2982 RMK A01 T03950069  RH  014%=      5-min Rain = 0
KMC4 152004Z 29011KT 39/07 A2981 RMK A01 T03930069  RH  014%=      5-min Rain = 0
KMC4 152005Z 29009KT 39/07 A2981 RMK A01 T03920066  RH  014%=      5-min Rain = 0
KMC4 152006Z 29011KT 39/07 A2981 RMK A01 T03900068  RH  014%=      5-min Rain = 0
KMC4 152007Z 30013KT 39/07 A2981 RMK A01 T03900068  RH  014%=      5-min Rain = 0
KMC4 152008Z 31010KT 39/07 A2981 RMK A01 T03920071  RH  014%=      5-min Rain = 0
KMC4 152009Z 29007KT 40/07 A2981 RMK A01 T03950070  RH  014%=      5-min Rain = 0
KMC4 152010Z 27005KT 39/07 A2981 RMK A01 T03940068  RH  014%=      5-min Rain = 0
KMC4 152011Z 26009KT 39/07 A2981 RMK A01 T03900073  RH  015%=      5-min Rain = 0
KMC4 152012Z 25008KT 39/07 A2981 RMK A01 T03870072  RH  015%=      5-min Rain = 0
KMC4 152013Z 23010KT 39/07 A2981 RMK A01 T03860073  RH  015%=      5-min Rain = 0
KMC4 152014Z 23013KT 39/07 A2981 RMK A01 T03860074  RH  015%=      5-min Rain = 0
KMC4 152015Z 25011G16KT 39/08 A2981 RMK A01 T03880077  RH  015%=      5-min Rain = 0
KMC4 152016Z 23013KT 39/08 A2981 RMK A01 T03910075  RH  015%=      5-min Rain = 0
KMC4 152017Z 23007KT 39/07 A2981 RMK A01 T03910071  RH  014%=      5-min Rain = 0
KMC4 152018Z 24008KT 39/07 A2981 RMK A01 T03900072  RH  015%=      5-min Rain = 0
KMC4 152019Z 24004KT 39/07 A2981 RMK A01 T03870065  RH  014%=      5-min Rain = 0
KMC4 152020Z 22003KT 38/07 A2981 RMK A01 T03840066  RH  014%=      5-min Rain = 0
KMC4 152021Z 25009KT 38/07 A2981 RMK A01 T03840074  RH  015%=      5-min Rain = 0
KMC4 152022Z 27008KT 38/07 A2981 RMK A01 T03840074  RH  015%=      5-min Rain = 0
KMC4 152023Z 26010KT 38/08 A2981 RMK A01 T03840076  RH  015%=      5-min Rain = 0
KMC4 152024Z 24010KT 38/07 A2981 RMK A01 T03840072  RH  015%=      5-min Rain = 0
KMC4 152025Z 26008KT 38/07 A2981 RMK A01 T03820072  RH  015%=      5-min Rain = 0
KMC4 152026Z 29006KT 38/07 A2981 RMK A01 T03800072  RH  015%=      5-min Rain = 0
KMC4 152027Z 29010KT 38/07 A2981 RMK A01 T03810069  RH  015%=      5-min Rain = 0
KMC4 152028Z 27008KT 38/07 A2981 RMK A01 T03810067  RH  015%=      5-min Rain = 0
KMC4 152029Z 30009KT 38/07 A2981 RMK A01 T03800071  RH  015%=      5-min Rain = 0
KMC4 152030Z 32012KT 38/07 A2981 RMK A01 T03810072  RH  015%=      5-min Rain = 0
KMC4 152031Z 30010KT 38/07 A2981 RMK A01 T03830073  RH  015%=      5-min Rain = 0
KMC4 152032Z 31014KT 38/07 A2981 RMK A01 T03840072  RH  015%=      5-min Rain = 0
KMC4 152033Z 30013KT 38/07 A2981 RMK A01 T03840070  RH  015%=      5-min Rain = 0
KMC4 152034Z 30011KT 38/07 A2981 RMK A01 T03830067  RH  015%=      5-min Rain = 0
KMC4 152035Z 31009KT 38/07 A2981 RMK A01 T03810066  RH  015%=      5-min Rain = 0
KMC4 152036Z 31010KT 38/07 A2981 RMK A01 T03800070  RH  015%=      5-min Rain = 0
KMC4 152037Z 31009KT 38/07 A2981 RMK A01 T03810069  RH  015%=      5-min Rain = 0
KMC4 152038Z 31005KT 38/07 A2981 RMK A01 T03810068  RH  015%=      5-min Rain = 0
KMC4 152039Z 30006KT 38/07 A2981 RMK A01 T03820067  RH  015%=      5-min Rain = 0
KMC4 152040Z 31006KT 38/07 A298 RMK A01 T03830067  RH  015%=      5-min Rain = 0
KMC4 152041Z 30005KT 39/07 A298 RMK A01 T03860069  RH  015%=      5-min Rain = 0
KMC4 152042Z 33005KT 39/07 A298 RMK A01 T03870069  RH  014%=      5-min Rain = 0
KMC4 152043Z 30006KT 39/07 A298 RMK A01 T03900072  RH  015%=      5-min Rain = 0
KMC4 152044Z 30004KT 39/07 A298 RMK A01 T03920069  RH  014%=      5-min Rain = 0
KMC4 152045Z 32006KT 39/07 A298 RMK A01 T03920071  RH  014%=      5-min Rain = 0
KMC4 152046Z 29006KT 39/07 A298 RMK A01 T03920073  RH  014%=      5-min Rain = 0
KMC4 152047Z 29006KT 39/07 A298 RMK A01 T03920074  RH  015%=      5-min Rain = 0
KMC4 152048Z 29006KT 39/08 A298 RMK A01 T03940077  RH  015%=      5-min Rain = 0
KMC4 152049Z 30009KT 40/07 A298 RMK A01 T03960074  RH  014%=      5-min Rain = 0
KMC4 152050Z 29006KT 39/07 A298 RMK A01 T03940068  RH  014%=      5-min Rain = 0
KMC4 152051Z 26005KT 39/08 A298 RMK A01 T03930075  RH  015%=      5-min Rain = 0
KMC4 152052Z 24005KT 39/07 A298 RMK A01 T03930073  RH  014%=      5-min Rain = 0
KMC4 152053Z 24003KT 39/07 A298 RMK A01 T03920071  RH  014%=      5-min Rain = 0
KMC4 152054Z 27003KT 39/07 A298 RMK A01 T03920069  RH  014%=      5-min Rain = 0
KMC4 152055Z 23005KT 39/07 A298 RMK A01 T03930074  RH  015%=      5-min Rain = 0
KMC4 152056Z 21006KT 39/07 A298 RMK A01 T03940070  RH  014%=      5-min Rain = 0
KMC4 152057Z 24009KT 39/08 A298 RMK A01 T03930077  RH  015%=      5-min Rain = 0
KMC4 152058Z 24011KT 40/07 A298 RMK A01 T03950071  RH  014%=      5-min Rain = 0
KMC4 152059Z 25010KT 39/08 A298 RMK A01 T03930077  RH  015%=      5-min Rain = 0
KMC4 152100Z 26014KT 40/08 A2979 RMK A01 T03970079  RH  015%=      5-min Rain = 0
KMC4 152101Z 25012KT 40/08 A298 RMK A01 T03950076  RH  015%=      5-min Rain = 0
KMC4 152102Z 26011KT 39/07 A298 RMK A01 T03920074  RH  015%=      5-min Rain = 0
KMC4 152103Z 27010KT 39/07 A2979 RMK A01 T03890074  RH  015%=      5-min Rain = 0
KMC4 152104Z 26012KT 39/07 A2979 RMK A01 T03870074  RH  015%=      5-min Rain = 0
KMC4 152105Z 25013KT 39/08 A2979 RMK A01 T03890075  RH  015%=      5-min Rain = 0
KMC4 152106Z 25011KT 39/07 A2979 RMK A01 T03900071  RH  014%=      5-min Rain = 0
KMC4 152107Z 25011KT 39/08 A2979 RMK A01 T03900077  RH  015%=      5-min Rain = 0
KMC4 152108Z 21008KT 39/08 A2979 RMK A01 T03910079  RH  015%=      5-min Rain = 0
KMC4 152109Z 20006KT 39/07 A2979 RMK A01 T03930070  RH  014%=      5-min Rain = 0
KMC4 152110Z 19007KT 39/07 A2979 RMK A01 T03920072  RH  014%=      5-min Rain = 0
KMC4 152111Z 21003KT 39/07 A2979 RMK A01 T03920070  RH  014%=      5-min Rain = 0
KMC4 152112Z 20001KT 39/07 A2979 RMK A01 T03920072  RH  014%=      5-min Rain = 0
KMC4 152113Z 27003KT 39/07 A2979 RMK A01 T03940071  RH  014%=      5-min Rain = 0
KMC4 152114Z 29005KT 40/07 A2979 RMK A01 T03950070  RH  014%=      5-min Rain = 0
KMC4 152115Z 30003KT 39/07 A2979 RMK A01 T03930067  RH  014%=      5-min Rain = 0
KMC4 152116Z 30002KT 39/07 A2979 RMK A01 T03910067  RH  014%=      5-min Rain = 0
KMC4 152117Z 29001KT 39/07 A2979 RMK A01 T03920066  RH  014%=      5-min Rain = 0
KMC4 152118Z 09000KT 39/07 A2979 RMK A01 T03940066  RH  014%=      5-min Rain = 0
KMC4 152119Z 26003KT 40/07 A2979 RMK A01 T03950069  RH  014%=      5-min Rain = 0
KMC4 152120Z 27007KT 40/08 A2979 RMK A01 T03950077  RH  015%=      5-min Rain = 0
KMC4 152121Z 26008KT 39/08 A2979 RMK A01 T03910075  RH  015%=      5-min Rain = 0
KMC4 152122Z 25007KT 39/08 A2979 RMK A01 T03890077  RH  015%=      5-min Rain = 0
KMC4 152123Z 24008KT 39/08 A2979 RMK A01 T03880078  RH  015%=      5-min Rain = 0
KMC4 152124Z 23009KT 39/08 A2979 RMK A01 T03890078  RH  015%=      5-min Rain = 0
KMC4 152125Z 23011KT 39/07 A2979 RMK A01 T03890074  RH  015%=      5-min Rain = 0
KMC4 152126Z 24011KT 39/07 A2979 RMK A01 T03880074  RH  015%=      5-min Rain = 0
KMC4 152127Z 25009KT 39/08 A2979 RMK A01 T03860075  RH  015%=      5-min Rain = 0
KMC4 152128Z 24008KT 38/07 A2979 RMK A01 T03830068  RH  015%=      5-min Rain = 0
KMC4 152129Z 25007KT 38/07 A2979 RMK A01 T03810071  RH  015%=      5-min Rain = 0
KMC4 152130Z 23006KT 38/07 A2979 RMK A01 T03810070  RH  015%=      5-min Rain = 0
KMC4 152131Z 21004KT 38/07 A2979 RMK A01 T03800068  RH  015%=      5-min Rain = 0
KMC4 152132Z 22004KT 38/07 A2979 RMK A01 T03800071  RH  015%=      5-min Rain = 0
KMC4 152133Z 23005KT 38/07 A2979 RMK A01 T03810073  RH  015%=      5-min Rain = 0
KMC4 152134Z 23006KT 38/08 A2979 RMK A01 T03820076  RH  016%=      5-min Rain = 0
KMC4 152135Z 24006KT 38/07 A2979 RMK A01 T03820072  RH  015%=      5-min Rain = 0
KMC4 152136Z 24006KT 38/07 A2979 RMK A01 T03820071  RH  015%=      5-min Rain = 0
KMC4 152137Z 24004KT 38/07 A2978 RMK A01 T03800069  RH  015%=      5-min Rain = 0
KMC4 152138Z 25006KT 38/07 A2978 RMK A01 T03800071  RH  015%=      5-min Rain = 0
KMC4 152139Z 24008KT 38/08 A2978 RMK A01 T03790076  RH  016%=      5-min Rain = 0
KMC4 152140Z 24008KT 38/07 A2978 RMK A01 T03790074  RH  016%=      5-min Rain = 0
KMC4 152141Z 24005KT 38/07 A2978 RMK A01 T03790073  RH  016%=      5-min Rain = 0
KMC4 152142Z 26006KT 38/07 A2978 RMK A01 T03780072  RH  015%=      5-min Rain = 0
KMC4 152143Z 26008KT 38/08 A2978 RMK A01 T03780076  RH  016%=      5-min Rain = 0
KMC4 152144Z 26008KT 38/07 A2978 RMK A01 T03780073  RH  016%=      5-min Rain = 0
KMC4 152145Z 25007KT 38/08 A2978 RMK A01 T03780077  RH  016%=      5-min Rain = 0
KMC4 152146Z 24007KT 38/08 A2978 RMK A01 T03780075  RH  016%=      5-min Rain = 0
KMC4 152147Z 22005KT 38/08 A2978 RMK A01 T03790075  RH  016%=      5-min Rain = 0
KMC4 152148Z 23006KT 38/08 A2978 RMK A01 T03790079  RH  016%=      5-min Rain = 0
KMC4 152149Z 24006KT 38/08 A2978 RMK A01 T03800075  RH  016%=      5-min Rain = 0
KMC4 152150Z 24006KT 38/08 A2978 RMK A01 T03800076  RH  016%=      5-min Rain = 0
KMC4 152151Z 26008KT 38/08 A2978 RMK A01 T03800081  RH  016%=      5-min Rain = 0
KMC4 152152Z 26008KT 38/07 A2978 RMK A01 T03790073  RH  015%=      5-min Rain = 0
KMC4 152153Z 26008KT 38/08 A2978 RMK A01 T03780075  RH  016%=      5-min Rain = 0
KMC4 152154Z 25007KT 38/08 A2978 RMK A01 T03770075  RH  016%=      5-min Rain = 0
KMC4 152155Z 24007KT 38/07 A2978 RMK A01 T03770072  RH  016%=      5-min Rain = 0
KMC4 152156Z 24006KT 38/07 A2978 RMK A01 T03770073  RH  016%=      5-min Rain = 0
KMC4 152157Z 24007KT 38/07 A2978 RMK A01 T03770073  RH  016%=      5-min Rain = 0
KMC4 152158Z 23006KT 38/08 A2978 RMK A01 T03770075  RH  016%=      5-min Rain = 0
KMC4 152159Z 23008KT 38/08 A2978 RMK A01 T03780077  RH  016%=      5-min Rain = 0
KMC4 152200Z 22007KT 38/08 A2979 RMK A01 T03790078  RH  016%=      5-min Rain = 0
KMC4 152201Z 17006KT 38/08 A2979 RMK A01 T03790078  RH  016%=      5-min Rain = 0
KMC4 152202Z 13004KT 38/16 A2979 RMK A01 T03770163  RH  029%=      5-min Rain = 0
KMC4 152203Z 11002KT 37/18 A2979 RMK A01 T03720179  RH  032%=      5-min Rain = 0
KMC4 152204Z 24002KT 37/18 A2979 RMK A01 T03670177  RH  033%=      5-min Rain = 0
KMC4 152205Z 20004KT 36/18 A2979 RMK A01 T03630178  RH  034%=      5-min Rain = 0
KMC4 152206Z 17005KT 36/18 A2979 RMK A01 T03590180  RH  035%=      5-min Rain = 0
KMC4 152207Z 15006KT 36/18 A2979 RMK A01 T03560180  RH  035%=      5-min Rain = 0
KMC4 152208Z 15006KT 36/18 A2979 RMK A01 T03550178  RH  035%=      5-min Rain = 0
KMC4 152209Z 14006KT 35/18 A2978 RMK A01 T03540178  RH  035%=      5-min Rain = 0
KMC4 152210Z 14006KT 35/18 A2978 RMK A01 T03540177  RH  035%=      5-min Rain = 0
KMC4 152211Z 13007KT 36/18 A2978 RMK A01 T03550177  RH  035%=      5-min Rain = 0
KMC4 152212Z 12007KT 36/18 A2978 RMK A01 T03560179  RH  035%=      5-min Rain = 0
KMC4 152213Z 12013KT 36/18 A2978 RMK A01 T03550183  RH  036%=      5-min Rain = 0
KMC4 152214Z 14011KT 35/19 A2978 RMK A01 T03530185  RH  037%=      5-min Rain = 0
KMC4 152215Z 15012KT 35/19 A2978 RMK A01 T03520185  RH  037%=      5-min Rain = 0
KMC4 152216Z 16013KT 35/18 A2978 RMK A01 T03500183  RH  037%=      5-min Rain = 0
KMC4 152217Z 15012KT 35/18 A2978 RMK A01 T03480181  RH  037%=      5-min Rain = 0
KMC4 152218Z 16010KT 35/18 A2978 RMK A01 T03460180  RH  037%=      5-min Rain = 0
KMC4 152219Z 17011KT 35/18 A2978 RMK A01 T03460180  RH  038%=      5-min Rain = 0
KMC4 152220Z 15011KT 35/18 A2978 RMK A01 T03460180  RH  037%=      5-min Rain = 0
KMC4 152221Z 15011KT 35/18 A2978 RMK A01 T03460179  RH  037%=      5-min Rain = 0
KMC4 152222Z 16009G14KT 35/18 A2979 RMK A01 T03450180  RH  038%=      5-min Rain = 0
KMC4 152223Z 16010KT 35/18 A2979 RMK A01 T03450183  RH  038%=      5-min Rain = 0
KMC4 152224Z 17009KT 35/19 A2979 RMK A01 T03450185  RH  039%=      5-min Rain = 0
KMC4 152225Z 17011KT 35/19 A2979 RMK A01 T03450186  RH  039%=      5-min Rain = 0
KMC4 152226Z 16009KT 35/19 A2979 RMK A01 T03450185  RH  039%=      5-min Rain = 0
KMC4 152227Z 16012G17KT 35/19 A2979 RMK A01 T03450187  RH  039%=      5-min Rain = 0
KMC4 152228Z 17012G18KT 34/19 A2979 RMK A01 T03440185  RH  039%=      5-min Rain = 0
KMC4 152229Z 17014KT 34/18 A2979 RMK A01 T03440184  RH  039%=      5-min Rain = 0
KMC4 152230Z 17016KT 34/18 A298 RMK A01 T03430183  RH  039%=      5-min Rain = 0
KMC4 152231Z 18015G22KT 34/18 A298 RMK A01 T03420183  RH  039%=      5-min Rain = 0
KMC4 152232Z 18016KT 34/18 A298 RMK A01 T03410184  RH  040%=      5-min Rain = 0
KMC4 152233Z 17016G22KT 34/18 A298 RMK A01 T03400184  RH  040%=      5-min Rain = 0
KMC4 152234Z 18015KT 34/18 A298 RMK A01 T03390183  RH  040%=      5-min Rain = 0
KMC4 152235Z 18014G20KT 34/18 A298 RMK A01 T03380183  RH  040%=      5-min Rain = 0
KMC4 152236Z 18019G24KT 34/18 A298 RMK A01 T03380184  RH  040%=      5-min Rain = 0
KMC4 152237Z 19020G25KT 34/19 A2981 RMK A01 T03370185  RH  041%=      5-min Rain = 0
KMC4 152238Z 20020G26KT 33/18 A2981 RMK A01 T03320182  RH  041%=      5-min Rain = 0
KMC4 152239Z 20018KT 33/18 A2981 RMK A01 T03280181  RH  042%=      5-min Rain = 0
KMC4 152240Z 19020KT 33/18 A2981 RMK A01 T03260181  RH  042%=      5-min Rain = 0
KMC4 152241Z 19021KT 32/18 A2981 RMK A01 T03240181  RH  043%=      5-min Rain = 0
KMC4 152242Z 19021KT 32/18 A2981 RMK A01 T03210179  RH  043%=      5-min Rain = 0
KMC4 152243Z 18020KT 32/18 A2981 RMK A01 T03190177  RH  043%=      5-min Rain = 0
KMC4 152244Z 18017KT 32/17 A2981 RMK A01 T03170173  RH  042%=      5-min Rain = 0
KMC4 152245Z 17016G21KT 32/17 A298 RMK A01 T03150169  RH  041%=      5-min Rain = 0
KMC4 152246Z 17015KT 31/17 A298 RMK A01 T03140169  RH  042%=      5-min Rain = 0
KMC4 152247Z 18014KT 31/16 A298 RMK A01 T03130164  RH  041%=      5-min Rain = 0
KMC4 152248Z 18013KT 31/16 A298 RMK A01 T03120161  RH  040%=      5-min Rain = 0
KMC4 152249Z 18017KT 31/16 A298 RMK A01 T03120160  RH  040%=      5-min Rain = 0
KMC4 152250Z 17015KT 31/16 A298 RMK A01 T03120160  RH  040%=      5-min Rain = 0
KMC4 152251Z 17012KT 31/16 A298 RMK A01 T03100159  RH  040%=      5-min Rain = 0
KMC4 152252Z 18011KT 31/16 A298 RMK A01 T03090159  RH  040%=      5-min Rain = 0
KMC4 152253Z 17012KT 31/15 A298 RMK A01 T03080154  RH  039%=      5-min Rain = 0
KMC4 152254Z 16008KT 31/16 A298 RMK A01 T03080158  RH  040%=      5-min Rain = 0
KMC4 152255Z 17007KT 31/16 A298 RMK A01 T03070156  RH  040%=      5-min Rain = 0
KMC4 152256Z 16007KT 31/16 A298 RMK A01 T03070155  RH  040%=      5-min Rain = 0
KMC4 152257Z 17006KT 31/16 A298 RMK A01 T03070158  RH  041%=      5-min Rain = 0
KMC4 152258Z 17008KT 31/16 A298 RMK A01 T03070160  RH  041%=      5-min Rain = 0
KMC4 152259Z 17009KT 31/16 A298 RMK A01 T03060160  RH  041%=      5-min Rain = 0
KMC4 152300Z 18009KT 31/16 A298 RMK A01 T03050158  RH  041%=      5-min Rain = 0
KMC4 152301Z 18009KT 30/16 A298 RMK A01 T03040155  RH  041%=      5-min Rain = 0
KMC4 152302Z 18008KT 30/16 A298 RMK A01 T03020155  RH  041%=      5-min Rain = 0
KMC4 152303Z 18008KT 30/16 A298 RMK A01 T03010155  RH  041%=      5-min Rain = 0
KMC4 152304Z 17010G16KT 30/15 A298 RMK A01 T03000153  RH  041%=      5-min Rain = 0
KMC4 152305Z 18013KT 30/15 A298 RMK A01 T03000145  RH  039%=      5-min Rain = 0
KMC4 152306Z 17010KT 30/15 A298 RMK A01 T03010145  RH  039%=      5-min Rain = 0
KMC4 152307Z 16013KT 30/15 A298 RMK A01 T03010145  RH  039%=      5-min Rain = 0
KMC4 152308Z 16012KT 30/14 A298 RMK A01 T03010142  RH  038%=      5-min Rain = 0
KMC4 152309Z 16013KT 30/14 A298 RMK A01 T03020141  RH  038%=      5-min Rain = 0
KMC4 152310Z 16013KT 30/14 A298 RMK A01 T03020141  RH  037%=      5-min Rain = 0
KMC4 152311Z 16013KT 30/14 A298 RMK A01 T03010140  RH  037%=      5-min Rain = 0
KMC4 152312Z 16012KT 30/14 A298 RMK A01 T03000141  RH  038%=      5-min Rain = 0
KMC4 152313Z 16013KT 30/14 A298 RMK A01 T03000140  RH  038%=      5-min Rain = 0
KMC4 152314Z 15013KT 30/14 A2979 RMK A01 T03000140  RH  038%=      5-min Rain = 0
KMC4 152315Z 16018G25KT 30/14 A2979 RMK A01 T02990143  RH  038%=      5-min Rain = 0
KMC4 152316Z 17015KT 30/14 A2978 RMK A01 T02980144  RH  039%=      5-min Rain = 0
KMC4 152317Z 16018G30KT 30/14 A2978 RMK A01 T02990135  RH  037%=      5-min Rain = 0
KMC4 152318Z 13024G33KT 31/11 A2976 RMK A01 T03070110  RH  030%=      5-min Rain = 0
KMC4 152319Z 10014G21KT 32/09 A2976 RMK A01 T03220085  RH  023%=      5-min Rain = 0
KMC4 152320Z 16009KT 33/12 A2978 RMK A01 T03310124  RH  029%=      5-min Rain = 0
KMC4 152321Z 20011KT 32/14 A2979 RMK A01 T03200136  RH  033%=      5-min Rain = 0
KMC4 152322Z 17010KT 31/14 A2979 RMK A01 T03110141  RH  036%=      5-min Rain = 0
KMC4 152323Z 17010KT 30/14 A2978 RMK A01 T03040144  RH  038%=      5-min Rain = 0
KMC4 152324Z 17015KT 30/15 A2978 RMK A01 T02990145  RH  039%=      5-min Rain = 0
KMC4 152325Z 15013KT 30/14 A2978 RMK A01 T02970143  RH  039%=      5-min Rain = 0
KMC4 152326Z 16014KT 30/14 A2978 RMK A01 T02970137  RH  038%=      5-min Rain = 0
KMC4 152327Z 15016KT 30/13 A2978 RMK A01 T02980134  RH  037%=      5-min Rain = 0
KMC4 152328Z 16015KT 30/13 A2978 RMK A01 T03020130  RH  035%=      5-min Rain = 0
KMC4 152329Z 16015KT 31/13 A2978 RMK A01 T03050128  RH  034%=      5-min Rain = 0
KMC4 152330Z 16015KT 31/13 A2978 RMK A01 T03080127  RH  033%=      5-min Rain = 0
KMC4 152331Z 16015KT 31/13 A2978 RMK A01 T03100128  RH  033%=      5-min Rain = 0
KMC4 152332Z 16015KT 31/13 A2978 RMK A01 T03110131  RH  033%=      5-min Rain = 0
KMC4 152333Z 16015KT 31/13 A2978 RMK A01 T03110133  RH  034%=      5-min Rain = 0
KMC4 152334Z 17017KT 31/13 A2978 RMK A01 T03110132  RH  034%=      5-min Rain = 0
KMC4 152335Z 17019KT 31/13 A2978 RMK A01 T03110133  RH  034%=      5-min Rain = 0
KMC4 152336Z 17017G22KT 31/13 A2978 RMK A01 T03120133  RH  034%=      5-min Rain = 0
KMC4 152337Z 17019KT 31/14 A2978 RMK A01 T03120137  RH  034%=      5-min Rain = 0
KMC4 152338Z 16017KT 31/14 A2978 RMK A01 T03120139  RH  035%=      5-min Rain = 0
KMC4 152339Z 16017KT 31/14 A2979 RMK A01 T03130142  RH  035%=      5-min Rain = 0
KMC4 152340Z 16018KT 31/14 A2979 RMK A01 T03140142  RH  035%=      5-min Rain = 0
KMC4 152341Z 16017KT 32/14 A2979 RMK A01 T03150144  RH  036%=      5-min Rain = 0
KMC4 152342Z 16016G21KT 32/15 A2978 RMK A01 T03160146  RH  036%=      5-min Rain = 0
KMC4 152343Z 15017KT 32/15 A2978 RMK A01 T03170147  RH  036%=      5-min Rain = 0
KMC4 152344Z 16018KT 32/15 A2978 RMK A01 T03170148  RH  036%=      5-min Rain = 0
KMC4 152345Z 16016KT 32/15 A2978 RMK A01 T03170150  RH  037%=      5-min Rain = 0
KMC4 152346Z 15017KT 32/15 A2978 RMK A01 T03170149  RH  036%=      5-min Rain = 0
KMC4 152347Z 15016KT 32/15 A2978 RMK A01 T03160151  RH  037%=      5-min Rain = 0
KMC4 152348Z 16015G20KT 32/15 A2978 RMK A01 T03170152  RH  037%=      5-min Rain = 0
KMC4 152349Z 16015KT 32/15 A2977 RMK A01 T03170153  RH  037%=      5-min Rain = 0
KMC4 152350Z 15014KT 32/15 A2977 RMK A01 T03160152  RH  037%=      5-min Rain = 0
KMC4 152351Z 15011KT 32/15 A2977 RMK A01 T03160154  RH  038%=      5-min Rain = 0
KMC4 152352Z 15012KT 32/15 A2977 RMK A01 T03180154  RH  037%=      5-min Rain = 0
KMC4 152353Z 15015KT 32/15 A2977 RMK A01 T03200153  RH  037%=      5-min Rain = 0
KMC4 152354Z 16013KT 32/15 A2977 RMK A01 T03190154  RH  037%=      5-min Rain = 0
KMC4 152355Z 15014KT 32/15 A2977 RMK A01 T03180154  RH  037%=      5-min Rain = 0
KMC4 152356Z 16012G17KT 32/15 A2978 RMK A01 T03170151  RH  037%=      5-min Rain = 0
KMC4 152357Z 17011KT 32/15 A2978 RMK A01 T03170151  RH  037%=      5-min Rain = 0
KMC4 152358Z 17015KT 32/15 A2978 RMK A01 T03160152  RH  037%=      5-min Rain = 0
KMC4 152359Z 17013KT 32/15 A2978 RMK A01 T03160151  RH  037%=      5-min Rain = 0
KMC4 160000Z 16014KT 32/16 A2978 RMK A01 T03160156  RH  038%=      5-min Rain = 0
KMC4 160001Z 17013KT 31/16 A2978 RMK A01 T03140161  RH  040%=      5-min Rain = 0
KMC4 160002Z 16012KT 31/16 A2978 RMK A01 T03130161  RH  040%=      5-min Rain = 0
KMC4 160003Z 16011KT 31/16 A2978 RMK A01 T03120164  RH  041%=      5-min Rain = 0
KMC4 160004Z 17014KT 31/17 A2978 RMK A01 T03120170  RH  043%=      5-min Rain = 0
KMC4 160005Z 15013KT 31/17 A2978 RMK A01 T03090171  RH  044%=      5-min Rain = 0
KMC4 160006Z 15014KT 31/17 A2978 RMK A01 T03080169  RH  043%=      5-min Rain = 0
KMC4 160007Z 15011KT 31/17 A2978 RMK A01 T03080171  RH  044%=      5-min Rain = 0
KMC4 160008Z 14013KT 31/17 A2978 RMK A01 T03080170  RH  044%=      5-min Rain = 0
KMC4 160009Z 14013KT 31/17 A2978 RMK A01 T03080169  RH  043%=      5-min Rain = 0
KMC4 160010Z 13013KT 31/17 A2978 RMK A01 T03070169  RH  043%=      5-min Rain = 0
KMC4 160011Z 14013KT 31/17 A2978 RMK A01 T03070170  RH  044%=      5-min Rain = 0
KMC4 160012Z 14013KT 31/17 A2978 RMK A01 T03060168  RH  043%=      5-min Rain = 0
KMC4 160013Z 13013KT 31/17 A2978 RMK A01 T03050168  RH  044%=      5-min Rain = 0
KMC4 160014Z 13014KT 31/17 A2978 RMK A01 T03050168  RH  044%=      5-min Rain = 0
KMC4 160015Z 13013KT 30/17 A2978 RMK A01 T03040167  RH  044%=      5-min Rain = 0
KMC4 160016Z 14014KT 30/17 A2978 RMK A01 T03030166  RH  044%=      5-min Rain = 0
KMC4 160017Z 14013KT 30/16 A2978 RMK A01 T03020164  RH  043%=      5-min Rain = 0
KMC4 160018Z 13012KT 30/17 A2978 RMK A01 T03010169  RH  045%=      5-min Rain = 0
KMC4 160019Z 14013KT 30/17 A2978 RMK A01 T03000166  RH  044%=      5-min Rain = 0
KMC4 160020Z 14014KT 30/16 A2978 RMK A01 T02990159  RH  043%=      5-min Rain = 0
KMC4 160021Z 14015KT 30/16 A2978 RMK A01 T02980155  RH  042%=      5-min Rain = 0
KMC4 160022Z 14014KT 30/15 A2978 RMK A01 T02980153  RH  041%=      5-min Rain = 0
KMC4 160023Z 14015KT 30/15 A2978 RMK A01 T02980151  RH  041%=      5-min Rain = 0
KMC4 160024Z 14012KT 30/15 A2978 RMK A01 T02980150  RH  041%=      5-min Rain = 0
KMC4 160025Z 14014KT 30/15 A2978 RMK A01 T02980149  RH  040%=      5-min Rain = 0
KMC4 160026Z 14012KT 30/15 A2978 RMK A01 T02980149  RH  040%=      5-min Rain = 0
KMC4 160027Z 14012KT 30/15 A2977 RMK A01 T02980148  RH  040%=      5-min Rain = 0
KMC4 160028Z 14012KT 30/15 A2977 RMK A01 T02980148  RH  040%=      5-min Rain = 0
KMC4 160029Z 13010KT 30/15 A2977 RMK A01 T02980147  RH  040%=      5-min Rain = 0
KMC4 160030Z 13011KT 30/15 A2977 RMK A01 T02990146  RH  039%=      5-min Rain = 0
KMC4 160031Z 13012KT 30/15 A2977 RMK A01 T03000146  RH  039%=      5-min Rain = 0
KMC4 160032Z 13012KT 30/14 A2978 RMK A01 T03010143  RH  038%=      5-min Rain = 0
KMC4 160033Z 14009KT 30/14 A2978 RMK A01 T03010143  RH  038%=      5-min Rain = 0
KMC4 160034Z 13011KT 30/14 A2978 RMK A01 T03010144  RH  038%=      5-min Rain = 0
KMC4 160035Z 13009KT 30/14 A2978 RMK A01 T03020142  RH  038%=      5-min Rain = 0
KMC4 160036Z 13008KT 30/15 A2978 RMK A01 T03020145  RH  038%=      5-min Rain = 0
KMC4 160037Z 14008KT 30/14 A2978 RMK A01 T03030144  RH  038%=      5-min Rain = 0
KMC4 160038Z 14011KT 30/14 A2978 RMK A01 T03030140  RH  037%=      5-min Rain = 0
KMC4 160039Z 13010KT 30/14 A2978 RMK A01 T03040138  RH  036%=      5-min Rain = 0
KMC4 160040Z 13008KT 30/14 A2978 RMK A01 T03040138  RH  036%=      5-min Rain = 0
KMC4 160041Z 13010KT 30/14 A2978 RMK A01 T03040139  RH  037%=      5-min Rain = 0
KMC4 160042Z 13008KT 30/14 A2978 RMK A01 T03040140  RH  037%=      5-min Rain = 0
KMC4 160043Z 13009KT 31/14 A2978 RMK A01 T03060140  RH  036%=      5-min Rain = 0
KMC4 160044Z 13010KT 31/14 A2978 RMK A01 T03060138  RH  036%=      5-min Rain = 0
KMC4 160045Z 13009KT 31/14 A2978 RMK A01 T03060135  RH  035%=      5-min Rain = 0
KMC4 160046Z 13009KT 31/14 A2978 RMK A01 T03070136  RH  035%=      5-min Rain = 0
KMC4 160047Z 13009KT 31/14 A2978 RMK A01 T03070136  RH  035%=      5-min Rain = 0
KMC4 160048Z 13009KT 31/14 A2978 RMK A01 T03070135  RH  035%=      5-min Rain = 0
KMC4 160049Z 13009KT 31/14 A2978 RMK A01 T03080135  RH  035%=      5-min Rain = 0
KMC4 160050Z 13008KT 31/13 A2978 RMK A01 T03080133  RH  034%=      5-min Rain = 0
KMC4 160051Z 13008KT 31/13 A2978 RMK A01 T03090134  RH  034%=      5-min Rain = 0
KMC4 160052Z 13010KT 31/13 A2978 RMK A01 T03100130  RH  033%=      5-min Rain = 0
KMC4 160053Z 13011KT 31/13 A2977 RMK A01 T03100127  RH  033%=      5-min Rain = 0
KMC4 160054Z 13011KT 31/13 A2977 RMK A01 T03100125  RH  032%=      5-min Rain = 0
KMC4 160055Z 13010KT 31/12 A2978 RMK A01 T03110124  RH  032%=      5-min Rain = 0
KMC4 160056Z 13011KT 31/12 A2978 RMK A01 T03110121  RH  031%=      5-min Rain = 0
KMC4 160057Z 13012KT 31/12 A2978 RMK A01 T03120119  RH  031%=      5-min Rain = 0
KMC4 160058Z 14011KT 31/12 A2978 RMK A01 T03110121  RH  031%=      5-min Rain = 0
KMC4 160059Z 13011KT 31/12 A2978 RMK A01 T03110122  RH  031%=      5-min Rain = 0
KMC4 160100Z 14011KT 31/12 A2978 RMK A01 T03110121  RH  031%=      5-min Rain = 0
KMC4 160101Z 14014KT 31/12 A2978 RMK A01 T03110118  RH  031%=      5-min Rain = 0
KMC4 160102Z 14012KT 31/12 A2978 RMK A01 T03100117  RH  031%=      5-min Rain = 0
KMC4 160103Z 14013KT 31/12 A2978 RMK A01 T03110118  RH  031%=      5-min Rain = 0
KMC4 160104Z 14013KT 31/12 A2978 RMK A01 T03100116  RH  030%=      5-min Rain = 0
KMC4 160105Z 15012KT 31/12 A2978 RMK A01 T03100118  RH  031%=      5-min Rain = 0
KMC4 160106Z 14011KT 31/12 A2979 RMK A01 T03100118  RH  031%=      5-min Rain = 0
KMC4 160107Z 14012KT 31/12 A2979 RMK A01 T03090118  RH  031%=      5-min Rain = 0
KMC4 160108Z 14012KT 31/12 A2979 RMK A01 T03090119  RH  031%=      5-min Rain = 0
KMC4 160109Z 14011KT 31/12 A2979 RMK A01 T03080119  RH  031%=      5-min Rain = 0
KMC4 160110Z 14014KT 31/12 A2979 RMK A01 T03080119  RH  031%=      5-min Rain = 0
KMC4 160111Z 14013KT 31/12 A2979 RMK A01 T03070119  RH  031%=      5-min Rain = 0
KMC4 160112Z 15013KT 31/12 A298 RMK A01 T03070120  RH  032%=      5-min Rain = 0
KMC4 160113Z 14014KT 31/12 A298 RMK A01 T03060119  RH  032%=      5-min Rain = 0
KMC4 160114Z 14012KT 31/12 A298 RMK A01 T03050120  RH  032%=      5-min Rain = 0
KMC4 160115Z 14011KT 30/12 A298 RMK A01 T03040120  RH  032%=      5-min Rain = 0
KMC4 160116Z 14010KT 30/12 A298 RMK A01 T03030121  RH  033%=      5-min Rain = 0
KMC4 160117Z 14010KT 30/12 A298 RMK A01 T03020122  RH  033%=      5-min Rain = 0
KMC4 160118Z 15012KT 30/12 A298 RMK A01 T03010121  RH  033%=      5-min Rain = 0
KMC4 160119Z 15013KT 30/12 A298 RMK A01 T03010119  RH  033%=      5-min Rain = 0
KMC4 160120Z 14010KT 30/12 A298 RMK A01 T03010120  RH  033%=      5-min Rain = 0
KMC4 160121Z 14010KT 30/12 A298 RMK A01 T03010121  RH  033%=      5-min Rain = 0
KMC4 160122Z 14009KT 30/12 A298 RMK A01 T03000121  RH  033%=      5-min Rain = 0
KMC4 160123Z 14009KT 30/12 A2979 RMK A01 T03000122  RH  033%=      5-min Rain = 0
KMC4 160124Z 14009KT 30/12 A2979 RMK A01 T03000122  RH  034%=      5-min Rain = 0
KMC4 160125Z 14010KT 30/12 A2979 RMK A01 T02980122  RH  034%=      5-min Rain = 0
KMC4 160126Z 14011KT 30/12 A2979 RMK A01 T02980122  RH  034%=      5-min Rain = 0
KMC4 160127Z 14009KT 30/12 A2979 RMK A01 T02960121  RH  034%=      5-min Rain = 0
KMC4 160128Z 14009KT 30/12 A2979 RMK A01 T02960122  RH  034%=      5-min Rain = 0
KMC4 160129Z 15010KT 30/12 A2979 RMK A01 T02950123  RH  034%=      5-min Rain = 0
KMC4 160130Z 16011KT 30/12 A298 RMK A01 T02950122  RH  034%=      5-min Rain = 0
KMC4 160131Z 16012KT 30/12 A298 RMK A01 T02950123  RH  035%=      5-min Rain = 0
KMC4 160132Z 15017G22KT 29/12 A298 RMK A01 T02940124  RH  035%=      5-min Rain = 0
KMC4 160133Z 15017KT 29/13 A298 RMK A01 T02940128  RH  036%=      5-min Rain = 0
KMC4 160134Z 15015KT 29/13 A298 RMK A01 T02930128  RH  036%=      5-min Rain = 0
KMC4 160135Z 15014KT 29/13 A298 RMK A01 T02920130  RH  037%=      5-min Rain = 0
KMC4 160136Z 16012KT 29/13 A298 RMK A01 T02910132  RH  037%=      5-min Rain = 0
KMC4 160137Z 15013G18KT 29/13 A298 RMK A01 T02900133  RH  038%=      5-min Rain = 0
KMC4 160138Z 14012KT 29/14 A298 RMK A01 T02890135  RH  039%=      5-min Rain = 0
KMC4 160139Z 15015KT 29/14 A298 RMK A01 T02890138  RH  040%=      5-min Rain = 0
KMC4 160140Z 15014KT 29/14 A298 RMK A01 T02870140  RH  041%=      5-min Rain = 0
KMC4 160141Z 14012KT 29/14 A298 RMK A01 T02850140  RH  041%=      5-min Rain = 0
KMC4 160142Z 14013KT 28/14 A298 RMK A01 T02840141  RH  042%=      5-min Rain = 0
KMC4 160143Z 14012KT 28/14 A298 RMK A01 T02830142  RH  042%=      5-min Rain = 0
KMC4 160144Z 14010KT 28/14 A298 RMK A01 T02820142  RH  042%=      5-min Rain = 0
KMC4 160145Z 14009KT 28/14 A298 RMK A01 T02820143  RH  043%=      5-min Rain = 0
KMC4 160146Z 14010KT 28/14 A298 RMK A01 T02810144  RH  043%=      5-min Rain = 0
KMC4 160147Z 12011KT 28/15 A298 RMK A01 T02800145  RH  044%=      5-min Rain = 0
KMC4 160148Z 12013KT 28/15 A298 RMK A01 T02790147  RH  045%=      5-min Rain = 0
KMC4 160149Z 12010KT 28/15 A298 RMK A01 T02770147  RH  045%=      5-min Rain = 0
KMC4 160150Z 12009KT 28/15 A298 RMK A01 T02760148  RH  045%=      5-min Rain = 0
KMC4 160151Z 11009KT 28/15 A298 RMK A01 T02750147  RH  046%=      5-min Rain = 0
KMC4 160152Z 11011KT 28/15 A298 RMK A01 T02750148  RH  046%=      5-min Rain = 0
KMC4 160153Z 12010KT 27/15 A298 RMK A01 T02740147  RH  046%=      5-min Rain = 0
KMC4 160154Z 12009KT 27/15 A298 RMK A01 T02730148  RH  046%=      5-min Rain = 0
KMC4 160155Z 12011KT 27/15 A298 RMK A01 T02720147  RH  046%=      5-min Rain = 0
KMC4 160156Z 12013KT 27/15 A298 RMK A01 T02720147  RH  046%=      5-min Rain = 0
KMC4 160157Z 12013KT 27/15 A298 RMK A01 T02710146  RH  046%=      5-min Rain = 0
KMC4 160158Z 12012KT 27/15 A298 RMK A01 T02710145  RH  046%=      5-min Rain = 0
KMC4 160159Z 13009KT 27/14 A298 RMK A01 T02700144  RH  046%=      5-min Rain = 0
KMC4 160200Z 12010KT 27/14 A2981 RMK A01 T02700144  RH  046%=      5-min Rain = 0
KMC4 160201Z 13010KT 27/14 A2981 RMK A01 T02700143  RH  046%=      5-min Rain = 0
KMC4 160202Z 13012KT 27/14 A2981 RMK A01 T02700143  RH  046%=      5-min Rain = 0
KMC4 160203Z 13011KT 27/14 A298 RMK A01 T02700142  RH  045%=      5-min Rain = 0
KMC4 160204Z 12012KT 27/14 A298 RMK A01 T02700142  RH  045%=      5-min Rain = 0
KMC4 160205Z 11011KT 27/14 A298 RMK A01 T02700143  RH  046%=      5-min Rain = 0
KMC4 160206Z 11012KT 27/15 A298 RMK A01 T02690145  RH  047%=      5-min Rain = 0
KMC4 160207Z 11011KT 27/15 A298 RMK A01 T02670146  RH  047%=      5-min Rain = 0
KMC4 160208Z 11009KT 27/15 A298 RMK A01 T02660147  RH  048%=      5-min Rain = 0
KMC4 160209Z 12010KT 27/15 A298 RMK A01 T02650147  RH  048%=      5-min Rain = 0
KMC4 160210Z 12009KT 26/15 A298 RMK A01 T02640147  RH  049%=      5-min Rain = 0
KMC4 160211Z 13009KT 26/15 A2981 RMK A01 T02630147  RH  049%=      5-min Rain = 0
KMC4 160212Z 12011KT 26/15 A2981 RMK A01 T02620147  RH  049%=      5-min Rain = 0
KMC4 160213Z 12012KT 26/15 A2981 RMK A01 T02620147  RH  049%=      5-min Rain = 0
KMC4 160214Z 12011KT 26/15 A2981 RMK A01 T02610146  RH  049%=      5-min Rain = 0
KMC4 160215Z 13010KT 26/15 A2981 RMK A01 T02600146  RH  049%=      5-min Rain = 0
KMC4 160216Z 13011G16KT 26/15 A2981 RMK A01 T02600145  RH  049%=      5-min Rain = 0
KMC4 160217Z 13011KT 26/14 A2981 RMK A01 T02600143  RH  048%=      5-min Rain = 0
KMC4 160218Z 13012KT 26/14 A2981 RMK A01 T02600140  RH  048%=      5-min Rain = 0
KMC4 160219Z 13012KT 26/14 A2981 RMK A01 T02600138  RH  047%=      5-min Rain = 0
KMC4 160220Z 13012KT 26/14 A2981 RMK A01 T02610136  RH  046%=      5-min Rain = 0
KMC4 160221Z 14013KT 26/14 A2981 RMK A01 T02610136  RH  046%=      5-min Rain = 0
KMC4 160222Z 14013KT 26/14 A2981 RMK A01 T02610135  RH  046%=      5-min Rain = 0
KMC4 160223Z 15012KT 26/14 A2981 RMK A01 T02610135  RH  046%=      5-min Rain = 0
KMC4 160224Z 14012KT 26/14 A2981 RMK A01 T02610135  RH  046%=      5-min Rain = 0
KMC4 160225Z 14012KT 26/14 A2981 RMK A01 T02610135  RH  046%=      5-min Rain = 0
KMC4 160226Z 15013KT 26/13 A2981 RMK A01 T02610134  RH  046%=      5-min Rain = 0
KMC4 160227Z 15010KT 26/13 A2981 RMK A01 T02610134  RH  046%=      5-min Rain = 0
KMC4 160228Z 15010KT 26/13 A2981 RMK A01 T02600134  RH  046%=      5-min Rain = 0
KMC4 160229Z 15007KT 26/13 A2981 RMK A01 T02600134  RH  046%=      5-min Rain = 0
KMC4 160230Z 15007KT 26/14 A2981 RMK A01 T02600135  RH  046%=      5-min Rain = 0
KMC4 160231Z 14010KT 26/14 A2981 RMK A01 T02600135  RH  046%=      5-min Rain = 0
KMC4 160232Z 14010KT 26/13 A2981 RMK A01 T02590134  RH  046%=      5-min Rain = 0
KMC4 160233Z 15008KT 26/13 A2982 RMK A01 T02590134  RH  046%=      5-min Rain = 0
KMC4 160234Z 15009KT 26/13 A2982 RMK A01 T02590134  RH  046%=      5-min Rain = 0
KMC4 160235Z 16008KT 26/13 A2982 RMK A01 T02590134  RH  046%=      5-min Rain = 0
KMC4 160236Z 15007KT 26/13 A2982 RMK A01 T02580134  RH  046%=      5-min Rain = 0
KMC4 160237Z 14007KT 26/13 A2982 RMK A01 T02580134  RH  046%=      5-min Rain = 0
KMC4 160238Z 14009KT 26/13 A2982 RMK A01 T02570134  RH  046%=      5-min Rain = 0
KMC4 160239Z 15008KT 26/13 A2982 RMK A01 T02570134  RH  047%=      5-min Rain = 0
KMC4 160240Z 14010KT 26/13 A2982 RMK A01 T02570134  RH  047%=      5-min Rain = 0
KMC4 160241Z 15008KT 26/13 A2982 RMK A01 T02570134  RH  047%=      5-min Rain = 0
KMC4 160242Z 15009KT 26/13 A2982 RMK A01 T02560134  RH  047%=      5-min Rain = 0
KMC4 160243Z 16009KT 26/13 A2982 RMK A01 T02560134  RH  047%=      5-min Rain = 0
KMC4 160244Z 16009KT 26/14 A2982 RMK A01 T02560135  RH  047%=      5-min Rain = 0
KMC4 160245Z 16009KT 26/14 A2982 RMK A01 T02550135  RH  047%=      5-min Rain = 0
KMC4 160246Z 16009KT 26/14 A2982 RMK A01 T02550135  RH  047%=      5-min Rain = 0
KMC4 160247Z 15009KT 25/14 A2982 RMK A01 T02540135  RH  048%=      5-min Rain = 0
KMC4 160248Z 14009KT 25/14 A2982 RMK A01 T02540135  RH  048%=      5-min Rain = 0
KMC4 160249Z 14009KT 25/14 A2982 RMK A01 T02530135  RH  048%=      5-min Rain = 0
KMC4 160250Z 13009KT 25/14 A2982 RMK A01 T02530135  RH  048%=      5-min Rain = 0
KMC4 160251Z 13008KT 25/14 A2982 RMK A01 T02520135  RH  048%=      5-min Rain = 0
KMC4 160252Z 12008KT 25/14 A2982 RMK A01 T02520135  RH  048%=      5-min Rain = 0
KMC4 160253Z 13007KT 25/13 A2982 RMK A01 T02520134  RH  048%=      5-min Rain = 0
KMC4 160254Z 12009KT 25/13 A2982 RMK A01 T02520134  RH  048%=      5-min Rain = 0
KMC4 160255Z 13007KT 25/14 A2983 RMK A01 T02520135  RH  048%=      5-min Rain = 0
KMC4 160256Z 13007KT 25/14 A2983 RMK A01 T02520135  RH  048%=      5-min Rain = 0
KMC4 160257Z 14005KT 25/13 A2983 RMK A01 T02520134  RH  048%=      5-min Rain = 0
KMC4 160258Z 12004KT 25/13 A2983 RMK A01 T02520134  RH  048%=      5-min Rain = 0
KMC4 160259Z 12004KT 25/13 A2983 RMK A01 T02510134  RH  048%=      5-min Rain = 0
KMC4 160300Z 12005KT 25/13 A2983 RMK A01 T02510134  RH  048%=      5-min Rain = 0
KMC4 160301Z 12005KT 25/13 A2983 RMK A01 T02510134  RH  048%=      5-min Rain = 0
KMC4 160302Z 12003KT 25/13 A2983 RMK A01 T02510134  RH  048%=      5-min Rain = 0
KMC4 160303Z 12005KT 25/13 A2983 RMK A01 T02510134  RH  048%=      5-min Rain = 0
KMC4 160304Z 12004KT 25/13 A2983 RMK A01 T02510133  RH  048%=      5-min Rain = 0
KMC4 160305Z 12003KT 25/13 A2983 RMK A01 T02510134  RH  048%=      5-min Rain = 0
KMC4 160306Z 13005KT 25/13 A2983 RMK A01 T02510134  RH  048%=      5-min Rain = 0
KMC4 160307Z 13004KT 25/13 A2984 RMK A01 T02510134  RH  048%=      5-min Rain = 0
KMC4 160308Z 12003KT 25/13 A2984 RMK A01 T02510134  RH  048%=      5-min Rain = 0
KMC4 160309Z 11004KT 25/13 A2984 RMK A01 T02510134  RH  048%=      5-min Rain = 0
KMC4 160310Z 11003KT 25/13 A2984 RMK A01 T02510134  RH  048%=      5-min Rain = 0
KMC4 160311Z 11002KT 25/13 A2984 RMK A01 T02510133  RH  048%=      5-min Rain = 0
KMC4 160312Z 09002KT 25/13 A2984 RMK A01 T02520133  RH  048%=      5-min Rain = 0
KMC4 160313Z 08002KT 25/13 A2984 RMK A01 T02520134  RH  048%=      5-min Rain = 0
KMC4 160314Z 06003KT 25/13 A2984 RMK A01 T02520133  RH  048%=      5-min Rain = 0
KMC4 160315Z 05002KT 25/13 A2984 RMK A01 T02530133  RH  048%=      5-min Rain = 0
KMC4 160316Z 05002KT 25/13 A2984 RMK A01 T02530133  RH  048%=      5-min Rain = 0
KMC4 160317Z 08003KT 25/13 A2984 RMK A01 T02530133  RH  048%=      5-min Rain = 0
KMC4 160318Z 09002KT 25/13 A2984 RMK A01 T02520133  RH  047%=      5-min Rain = 0
KMC4 160319Z 10002KT 25/13 A2984 RMK A01 T02530133  RH  047%=      5-min Rain = 0
KMC4 160320Z 14003KT 25/13 A2985 RMK A01 T02530133  RH  047%=      5-min Rain = 0
KMC4 160321Z 12003KT 25/13 A2984 RMK A01 T02530133  RH  047%=      5-min Rain = 0
KMC4 160322Z 14003KT 25/13 A2984 RMK A01 T02530133  RH  047%=      5-min Rain = 0
KMC4 160323Z 13005KT 25/13 A2985 RMK A01 T02530134  RH  048%=      5-min Rain = 0
KMC4 160324Z 15006KT 25/14 A2985 RMK A01 T02530135  RH  048%=      5-min Rain = 0
KMC4 160325Z 15008KT 25/14 A2985 RMK A01 T02530135  RH  048%=      5-min Rain = 0
KMC4 160326Z 15008KT 25/14 A2985 RMK A01 T02540135  RH  048%=      5-min Rain = 0
KMC4 160327Z 15009KT 26/14 A2985 RMK A01 T02560135  RH  047%=      5-min Rain = 0
KMC4 160328Z 14009KT 26/14 A2985 RMK A01 T02580136  RH  047%=      5-min Rain = 0
KMC4 160329Z 15010KT 26/14 A2985 RMK A01 T02590137  RH  047%=      5-min Rain = 0
KMC4 160330Z 14009KT 26/14 A2985 RMK A01 T02600138  RH  047%=      5-min Rain = 0
KMC4 160331Z 13008KT 26/14 A2985 RMK A01 T02600138  RH  047%=      5-min Rain = 0
KMC4 160332Z 13008KT 26/14 A2985 RMK A01 T02610138  RH  047%=      5-min Rain = 0
KMC4 160333Z 12007KT 26/14 A2985 RMK A01 T02600138  RH  047%=      5-min Rain = 0
KMC4 160334Z 13007KT 26/14 A2985 RMK A01 T02600139  RH  047%=      5-min Rain = 0
KMC4 160335Z 14006KT 26/14 A2985 RMK A01 T02610139  RH  047%=      5-min Rain = 0
KMC4 160336Z 12007KT 26/14 A2985 RMK A01 T02600140  RH  047%=      5-min Rain = 0
KMC4 160337Z 12007KT 26/14 A2985 RMK A01 T02600142  RH  048%=      5-min Rain = 0
KMC4 160338Z 13009KT 26/14 A2985 RMK A01 T02600142  RH  048%=      5-min Rain = 0
KMC4 160339Z 13008KT 26/14 A2985 RMK A01 T02600143  RH  048%=      5-min Rain = 0
KMC4 160340Z 13007KT 26/14 A2985 RMK A01 T02590143  RH  049%=      5-min Rain = 0
KMC4 160341Z 13005KT 26/14 A2985 RMK A01 T02590144  RH  049%=      5-min Rain = 0
KMC4 160342Z 14005KT 26/14 A2985 RMK A01 T02590144  RH  049%=      5-min Rain = 0
KMC4 160343Z 13003KT 26/14 A2985 RMK A01 T02580144  RH  049%=      5-min Rain = 0
KMC4 160344Z 14004KT 26/14 A2985 RMK A01 T02580144  RH  049%=      5-min Rain = 0
KMC4 160345Z 16005KT 26/15 A2985 RMK A01 T02580145  RH  050%=      5-min Rain = 0
KMC4 160346Z 15004KT 26/15 A2985 RMK A01 T02570145  RH  050%=      5-min Rain = 0
KMC4 160347Z 15006KT 26/15 A2985 RMK A01 T02570146  RH  050%=      5-min Rain = 0
KMC4 160348Z 15009KT 26/15 A2985 RMK A01 T02570150  RH  052%=      5-min Rain = 0
KMC4 160349Z 16009KT 26/15 A2985 RMK A01 T02570153  RH  052%=      5-min Rain = 0
KMC4 160350Z 16008KT 26/15 A2985 RMK A01 T02580154  RH  053%=      5-min Rain = 0
KMC4 160351Z 15009KT 26/16 A2985 RMK A01 T02580155  RH  053%=      5-min Rain = 0
KMC4 160352Z 16009KT 26/16 A2985 RMK A01 T02590157  RH  053%=      5-min Rain = 0
KMC4 160353Z 15010KT 26/16 A2985 RMK A01 T02590158  RH  054%=      5-min Rain = 0
KMC4 160354Z 16009KT 26/16 A2985 RMK A01 T02590159  RH  054%=      5-min Rain = 0
KMC4 160355Z 16009KT 26/16 A2985 RMK A01 T02590160  RH  054%=      5-min Rain = 0
KMC4 160356Z 15011KT 26/16 A2985 RMK A01 T02590162  RH  055%=      5-min Rain = 0
KMC4 160357Z 16014KT 26/17 A2985 RMK A01 T02600165  RH  056%=      5-min Rain = 0
KMC4 160358Z 16013KT 26/17 A2985 RMK A01 T02620166  RH  056%=      5-min Rain = 0
KMC4 160359Z 16013KT 26/17 A2985 RMK A01 T02630166  RH  055%=      5-min Rain = 0
KMC4 160400Z 16012KT 26/17 A2985 RMK A01 T02630167  RH  055%=      5-min Rain = 0
KMC4 160401Z 16011KT 26/17 A2985 RMK A01 T02630167  RH  056%=      5-min Rain = 0
KMC4 160402Z 15013KT 26/17 A2985 RMK A01 T02620167  RH  056%=      5-min Rain = 0
KMC4 160403Z 15012KT 26/17 A2985 RMK A01 T02620168  RH  056%=      5-min Rain = 0
KMC4 160404Z 15013G19KT 26/17 A2985 RMK A01 T02620168  RH  056%=      5-min Rain = 0
KMC4 160405Z 15014G19KT 26/17 A2985 RMK A01 T02620168  RH  056%=      5-min Rain = 0
KMC4 160406Z 15012KT 26/17 A2985 RMK A01 T02620168  RH  056%=      5-min Rain = 0
KMC4 160407Z 15013KT 26/17 A2985 RMK A01 T02620168  RH  056%=      5-min Rain = 0
KMC4 160408Z 15014KT 26/17 A2985 RMK A01 T02620168  RH  056%=      5-min Rain = 0
KMC4 160409Z 15011KT 26/17 A2985 RMK A01 T02620167  RH  056%=      5-min Rain = 0
KMC4 160410Z 15012KT 26/17 A2985 RMK A01 T02620167  RH  056%=      5-min Rain = 0
KMC4 160411Z 15013KT 26/17 A2985 RMK A01 T02620167  RH  056%=      5-min Rain = 0
KMC4 160412Z 14011KT 26/17 A2985 RMK A01 T02620166  RH  056%=      5-min Rain = 0
KMC4 160413Z 14009KT 26/17 A2985 RMK A01 T02620166  RH  055%=      5-min Rain = 0
KMC4 160414Z 13010KT 26/17 A2985 RMK A01 T02620165  RH  055%=      5-min Rain = 0
KMC4 160415Z 14010KT 26/17 A2985 RMK A01 T02620165  RH  055%=      5-min Rain = 0
KMC4 160416Z 13010KT 26/16 A2985 RMK A01 T02620164  RH  055%=      5-min Rain = 0
KMC4 160417Z 14010KT 26/16 A2986 RMK A01 T02620164  RH  055%=      5-min Rain = 0
KMC4 160418Z 14011KT 26/16 A2985 RMK A01 T02630164  RH  055%=      5-min Rain = 0
KMC4 160419Z 12009KT 26/17 A2985 RMK A01 T02640165  RH  054%=      5-min Rain = 0
KMC4 160420Z 12008KT 27/16 A2985 RMK A01 T02650164  RH  054%=      5-min Rain = 0
KMC4 160421Z 11006KT 27/16 A2985 RMK A01 T02650164  RH  054%=      5-min Rain = 0
KMC4 160422Z 11007KT 27/16 A2986 RMK A01 T02650164  RH  054%=      5-min Rain = 0
KMC4 160423Z 11006KT 27/16 A2986 RMK A01 T02650164  RH  054%=      5-min Rain = 0
KMC4 160424Z 11005G10KT 27/16 A2986 RMK A01 T02650164  RH  054%=      5-min Rain = 0
KMC4 160425Z 11007KT 27/17 A2985 RMK A01 T02650165  RH  054%=      5-min Rain = 0
KMC4 160426Z 10009KT 27/17 A2985 RMK A01 T02670167  RH  054%=      5-min Rain = 0
KMC4 160427Z 09009KT 27/17 A2985 RMK A01 T02680166  RH  054%=      5-min Rain = 0
KMC4 160428Z 09009KT 27/17 A2985 RMK A01 T02680166  RH  054%=      5-min Rain = 0
KMC4 160429Z 09008KT 27/17 A2985 RMK A01 T02680167  RH  054%=      5-min Rain = 0
KMC4 160430Z 10008KT 27/17 A2985 RMK A01 T02690168  RH  054%=      5-min Rain = 0
KMC4 160431Z 09008KT 27/17 A2985 RMK A01 T02690168  RH  054%=      5-min Rain = 0
KMC4 160432Z 10011KT 27/17 A2985 RMK A01 T02700169  RH  054%=      5-min Rain = 0
KMC4 160433Z 14009KT 27/17 A2985 RMK A01 T02720170  RH  053%=      5-min Rain = 0
KMC4 160434Z 15007KT 27/17 A2985 RMK A01 T02730169  RH  053%=      5-min Rain = 0
KMC4 160435Z 14004KT 27/17 A2985 RMK A01 T02710168  RH  053%=      5-min Rain = 0
KMC4 160436Z 13005KT 27/17 A2985 RMK A01 T02690168  RH  054%=      5-min Rain = 0
KMC4 160437Z 11005KT 27/17 A2985 RMK A01 T02680168  RH  054%=      5-min Rain = 0
KMC4 160438Z 10004KT 27/17 A2985 RMK A01 T02680168  RH  054%=      5-min Rain = 0
KMC4 160439Z 08004KT 27/17 A2985 RMK A01 T02680169  RH  055%=      5-min Rain = 0
KMC4 160440Z 10004KT 27/17 A2985 RMK A01 T02680169  RH  055%=      5-min Rain = 0
KMC4 160441Z 11005KT 27/17 A2985 RMK A01 T02680170  RH  055%=      5-min Rain = 0
KMC4 160442Z 10004KT 27/17 A2985 RMK A01 T02690170  RH  055%=      5-min Rain = 0
KMC4 160443Z 11005KT 27/17 A2985 RMK A01 T02690170  RH  055%=      5-min Rain = 0
KMC4 160444Z 13005KT 27/17 A2985 RMK A01 T02690171  RH  055%=      5-min Rain = 0
KMC4 160445Z 15008KT 27/17 A2985 RMK A01 T02690172  RH  055%=      5-min Rain = 0
KMC4 160446Z 12008KT 27/17 A2985 RMK A01 T02690172  RH  055%=      5-min Rain = 0
KMC4 160447Z 12007KT 27/17 A2985 RMK A01 T02700172  RH  055%=      5-min Rain = 0
KMC4 160448Z 14006KT 27/17 A2985 RMK A01 T02700172  RH  055%=      5-min Rain = 0
KMC4 160449Z 14008KT 27/17 A2985 RMK A01 T02700173  RH  055%=      5-min Rain = 0
KMC4 160450Z 15012KT 27/17 A2985 RMK A01 T02720174  RH  055%=      5-min Rain = 0
KMC4 160451Z 15010KT 27/17 A2985 RMK A01 T02740174  RH  054%=      5-min Rain = 0
KMC4 160452Z 15009KT 28/17 A2985 RMK A01 T02750174  RH  054%=      5-min Rain = 0
KMC4 160453Z 15009KT 28/18 A2985 RMK A01 T02760175  RH  054%=      5-min Rain = 0
KMC4 160454Z 15009KT 28/17 A2985 RMK A01 T02760174  RH  054%=      5-min Rain = 0
KMC4 160455Z 15011KT 28/18 A2985 RMK A01 T02760175  RH  054%=      5-min Rain = 0
KMC4 160456Z 15011G16KT 28/18 A2985 RMK A01 T02760175  RH  054%=      5-min Rain = 0
KMC4 160457Z 15012KT 28/18 A2985 RMK A01 T02760175  RH  054%=      5-min Rain = 0
KMC4 160458Z 15012KT 28/18 A2985 RMK A01 T02760175  RH  054%=      5-min Rain = 0
KMC4 160459Z 15016KT 28/18 A2985 RMK A01 T02760176  RH  054%=      5-min Rain = 0

Page generated in 0.0327 seconds.